PWSweather.com
Personal Weather Stations
Station Observations
BPRISK1
The Meadows, Remington, VA

The MeadowsRemington, VA

Lat: 38.5341263, Lon: -77.791069

Elevation: 295

Station Type: Davis Vantage Pro 2

http://www.riskva.com

High Low Average
Temperature 50.9°F10.5°C 30.7°F-0.7°C 39.7°F4.3°C
Dew Point 24.7°F-4.1°C 15.9°F-8.9°C 20.1°F-6.6°C
Winds 22.0 mph 35.4 kmh Calm Calm 5.0 mph SW8.0 kmh SW
Wind Gusts 26.0 mph41.8 kmh -- 8.0 mph12.9 kmh
Humidity 73% 30% 46%
Pressure 30.35 in1027.8 mb 30.17 in1021.7 mb -
Precipitation 0.00 in0.0 mm - -
Hour Temp Dew Point Humidity Winds Wind Gusts Pressure Precip Precip Rate Daily Precip Total
12:00 AM 34.7°F1.5°C 20.2°F-6.6°C 55% 7.0 mph NNW11.3 kmh NNW 13.0 mph20.9 kmh 30.15 in1021.0 mb 0.00 in0.0 mm 0.00 in0.0 mm 0.00 in0.0 mm
12:04 AM 34.5°F1.4°C 20.0°F-6.7°C 55% 17.0 mph N27.4 kmh N 20.0 mph32.2 kmh 30.15 in1021.0 mb 0.00 in0.0 mm 0.00 in0.0 mm 0.00 in0.0 mm
12:05 AM 34.5°F1.4°C 20.0°F-6.7°C 55% 9.0 mph N14.5 kmh N 21.0 mph33.8 kmh 30.15 in1021.0 mb 0.00 in0.0 mm 0.00 in0.0 mm 0.00 in0.0 mm
12:09 AM 34.4°F1.3°C 19.9°F-6.7°C 55% 9.0 mph N14.5 kmh N 16.0 mph25.7 kmh 30.15 in1021.0 mb 0.00 in0.0 mm 0.00 in0.0 mm 0.00 in0.0 mm
12:10 AM 34.4°F1.3°C 19.9°F-6.7°C 55% 11.0 mph NNW17.7 kmh NNW 16.0 mph25.7 kmh 30.15 in1021.0 mb 0.00 in0.0 mm 0.00 in0.0 mm 0.00 in0.0 mm
12:14 AM 34.3°F1.3°C 19.8°F-6.8°C 55% 11.0 mph NNW17.7 kmh NNW 21.0 mph33.8 kmh 30.16 in1021.3 mb 0.00 in0.0 mm 0.00 in0.0 mm 0.00 in0.0 mm
12:15 AM 34.3°F1.3°C 19.8°F-6.8°C 55% 15.0 mph N24.1 kmh N 24.0 mph38.6 kmh 30.16 in1021.3 mb 0.00 in0.0 mm 0.00 in0.0 mm 0.00 in0.0 mm
12:19 AM 34.3°F1.3°C 19.8°F-6.8°C 55% 10.0 mph NW16.1 kmh NW 15.0 mph24.1 kmh 30.16 in1021.3 mb 0.00 in0.0 mm 0.00 in0.0 mm 0.00 in0.0 mm
12:20 AM 34.3°F1.3°C 19.8°F-6.8°C 55% 10.0 mph N16.1 kmh N 18.0 mph29.0 kmh 30.16 in1021.3 mb 0.00 in0.0 mm 0.00 in0.0 mm 0.00 in0.0 mm
12:24 AM 34.3°F1.3°C 19.8°F-6.8°C 55% 16.0 mph N25.7 kmh N 21.0 mph33.8 kmh 30.16 in1021.3 mb 0.00 in0.0 mm 0.00 in0.0 mm 0.00 in0.0 mm
12:25 AM 34.2°F1.2°C 19.7°F-6.8°C 55% 15.0 mph N24.1 kmh N 18.0 mph29.0 kmh 30.16 in1021.3 mb 0.00 in0.0 mm 0.00 in0.0 mm 0.00 in0.0 mm
12:29 AM 34.2°F1.2°C 19.3°F-7.1°C 54% 14.0 mph NW22.5 kmh NW 18.0 mph29.0 kmh 30.16 in1021.3 mb 0.00 in0.0 mm 0.00 in0.0 mm 0.00 in0.0 mm
12:30 AM 34.2°F1.2°C 19.3°F-7.1°C 54% 19.0 mph NW30.6 kmh NW 19.0 mph30.6 kmh 30.16 in1021.3 mb 0.00 in0.0 mm 0.00 in0.0 mm 0.00 in0.0 mm
12:34 AM 34.1°F1.2°C 19.6°F-6.9°C 55% 9.0 mph NW14.5 kmh NW 15.0 mph24.1 kmh 30.17 in1021.7 mb 0.00 in0.0 mm 0.00 in0.0 mm 0.00 in0.0 mm
12:35 AM 34.1°F1.2°C 19.6°F-6.9°C 55% 21.0 mph NNW33.8 kmh NNW 23.0 mph37.0 kmh 30.17 in1021.7 mb 0.00 in0.0 mm 0.00 in0.0 mm 0.00 in0.0 mm
12:39 AM 34.0°F1.1°C 19.1°F-7.2°C 54% 14.0 mph NNW22.5 kmh NNW 21.0 mph33.8 kmh 30.17 in1021.7 mb 0.00 in0.0 mm 0.00 in0.0 mm 0.00 in0.0 mm
12:40 AM 34.0°F1.1°C 19.6°F-6.9°C 55% 15.0 mph NW24.1 kmh NW 15.0 mph24.1 kmh 30.17 in1021.7 mb 0.00 in0.0 mm 0.00 in0.0 mm 0.00 in0.0 mm
12:44 AM 33.9°F1.1°C 19.0°F-7.2°C 54% 16.0 mph NNW25.7 kmh NNW 21.0 mph33.8 kmh 30.17 in1021.7 mb 0.00 in0.0 mm 0.00 in0.0 mm 0.00 in0.0 mm
12:45 AM 33.9°F1.1°C 19.0°F-7.2°C 54% 20.0 mph NW32.2 kmh NW 23.0 mph37.0 kmh 30.17 in1021.7 mb 0.00 in0.0 mm 0.00 in0.0 mm 0.00 in0.0 mm
12:49 AM 33.9°F1.1°C 19.5°F-6.9°C 55% 16.0 mph N25.7 kmh N 20.0 mph32.2 kmh 30.17 in1021.7 mb 0.00 in0.0 mm 0.00 in0.0 mm 0.00 in0.0 mm
12:50 AM 33.9°F1.1°C 19.5°F-6.9°C 55% 24.0 mph N38.6 kmh N 24.0 mph38.6 kmh 30.16 in1021.3 mb 0.00 in0.0 mm 0.00 in0.0 mm 0.00 in0.0 mm
12:54 AM 33.7°F0.9°C 19.3°F-7.1°C 55% 14.0 mph NNW22.5 kmh NNW 16.0 mph25.7 kmh 30.17 in1021.7 mb 0.00 in0.0 mm 0.00 in0.0 mm 0.00 in0.0 mm
12:55 AM 33.7°F0.9°C 19.3°F-7.1°C 55% 13.0 mph NW20.9 kmh NW 17.0 mph27.4 kmh 30.17 in1021.7 mb 0.00 in0.0 mm 0.00 in0.0 mm 0.00 in0.0 mm
12:59 AM 33.6°F0.9°C 19.2°F-7.1°C 55% 16.0 mph WNW25.7 kmh WNW 18.0 mph29.0 kmh 30.17 in1021.7 mb 0.00 in0.0 mm 0.00 in0.0 mm 0.00 in0.0 mm
01:00 AM 33.6°F0.9°C 18.7°F-7.4°C 54% 7.0 mph NW11.3 kmh NW 18.0 mph29.0 kmh 30.17 in1021.7 mb 0.00 in0.0 mm 0.00 in0.0 mm 0.00 in0.0 mm
01:04 AM 33.6°F0.9°C 18.7°F-7.4°C 54% 13.0 mph NNW20.9 kmh NNW 18.0 mph29.0 kmh 30.17 in1021.7 mb 0.00 in0.0 mm 0.00 in0.0 mm 0.00 in0.0 mm
01:05 AM 33.6°F0.9°C 18.7°F-7.4°C 54% 12.0 mph NW19.3 kmh NW 20.0 mph32.2 kmh 30.17 in1021.7 mb 0.00 in0.0 mm 0.00 in0.0 mm 0.00 in0.0 mm
01:09 AM 33.5°F0.8°C 18.7°F-7.4°C 54% 13.0 mph NW20.9 kmh NW 23.0 mph37.0 kmh 30.17 in1021.7 mb 0.00 in0.0 mm 0.00 in0.0 mm 0.00 in0.0 mm
01:10 AM 33.5°F0.8°C 18.7°F-7.4°C 54% 10.0 mph NW16.1 kmh NW 18.0 mph29.0 kmh 30.17 in1021.7 mb 0.00 in0.0 mm 0.00 in0.0 mm 0.00 in0.0 mm
01:14 AM 33.5°F0.8°C 18.7°F-7.4°C 54% 7.0 mph NNW11.3 kmh NNW 13.0 mph20.9 kmh 30.18 in1022.0 mb 0.00 in0.0 mm 0.00 in0.0 mm 0.00 in0.0 mm
01:15 AM 33.5°F0.8°C 18.7°F-7.4°C 54% 15.0 mph N24.1 kmh N 22.0 mph35.4 kmh 30.17 in1021.7 mb 0.00 in0.0 mm 0.00 in0.0 mm 0.00 in0.0 mm
01:19 AM 33.5°F0.8°C 18.7°F-7.4°C 54% 12.0 mph NNW19.3 kmh NNW 17.0 mph27.4 kmh 30.18 in1022.0 mb 0.00 in0.0 mm 0.00 in0.0 mm 0.00 in0.0 mm
01:20 AM 33.5°F0.8°C 18.7°F-7.4°C 54% 12.0 mph N19.3 kmh N 17.0 mph27.4 kmh 30.18 in1022.0 mb 0.00 in0.0 mm 0.00 in0.0 mm 0.00 in0.0 mm
01:24 AM 33.4°F0.8°C 18.6°F-7.4°C 54% 9.0 mph NNW14.5 kmh NNW 14.0 mph22.5 kmh 30.18 in1022.0 mb 0.00 in0.0 mm 0.00 in0.0 mm 0.00 in0.0 mm
01:25 AM 33.4°F0.8°C 18.6°F-7.4°C 54% 9.0 mph NW14.5 kmh NW 13.0 mph20.9 kmh 30.18 in1022.0 mb 0.00 in0.0 mm 0.00 in0.0 mm 0.00 in0.0 mm
01:29 AM 33.3°F0.7°C 18.5°F-7.5°C 54% 15.0 mph NNW24.1 kmh NNW 15.0 mph24.1 kmh 30.18 in1022.0 mb 0.00 in0.0 mm 0.00 in0.0 mm 0.00 in0.0 mm
01:30 AM 33.3°F0.7°C 18.5°F-7.5°C 54% 15.0 mph NNW24.1 kmh NNW 15.0 mph24.1 kmh 30.18 in1022.0 mb 0.00 in0.0 mm 0.00 in0.0 mm 0.00 in0.0 mm
01:34 AM 33.3°F0.7°C 18.5°F-7.5°C 54% 15.0 mph NNW24.1 kmh NNW 15.0 mph24.1 kmh 30.18 in1022.0 mb 0.00 in0.0 mm 0.00 in0.0 mm 0.00 in0.0 mm
01:35 AM 33.3°F0.7°C 18.5°F-7.5°C 54% 15.0 mph NNW24.1 kmh NNW 15.0 mph24.1 kmh 30.18 in1022.0 mb 0.00 in0.0 mm 0.00 in0.0 mm 0.00 in0.0 mm
01:39 AM 33.3°F0.7°C 18.5°F-7.5°C 54% 15.0 mph NNW24.1 kmh NNW 15.0 mph24.1 kmh 30.18 in1022.0 mb 0.00 in0.0 mm 0.00 in0.0 mm 0.00 in0.0 mm
01:40 AM 33.3°F0.7°C 18.5°F-7.5°C 54% 15.0 mph NNW24.1 kmh NNW 15.0 mph24.1 kmh 30.18 in1022.0 mb 0.00 in0.0 mm 0.00 in0.0 mm 0.00 in0.0 mm
01:44 AM 33.3°F0.7°C 18.5°F-7.5°C 54% 15.0 mph NNW24.1 kmh NNW 15.0 mph24.1 kmh 30.18 in1022.0 mb 0.00 in0.0 mm 0.00 in0.0 mm 0.00 in0.0 mm
01:45 AM 33.3°F0.7°C 18.5°F-7.5°C 54% 15.0 mph NNW24.1 kmh NNW 15.0 mph24.1 kmh 30.18 in1022.0 mb 0.00 in0.0 mm 0.00 in0.0 mm 0.00 in0.0 mm
01:49 AM 33.3°F0.7°C 18.5°F-7.5°C 54% 15.0 mph NNW24.1 kmh NNW 15.0 mph24.1 kmh 30.18 in1022.0 mb 0.00 in0.0 mm 0.00 in0.0 mm 0.00 in0.0 mm
01:50 AM 33.3°F0.7°C 18.5°F-7.5°C 54% 15.0 mph NNW24.1 kmh NNW 15.0 mph24.1 kmh 30.19 in1022.4 mb 0.00 in0.0 mm 0.00 in0.0 mm 0.00 in0.0 mm
01:54 AM 32.9°F0.5°C 18.9°F-7.3°C 56% 6.0 mph NNW9.7 kmh NNW 15.0 mph24.1 kmh 30.19 in1022.4 mb 0.00 in0.0 mm 0.00 in0.0 mm 0.00 in0.0 mm
01:55 AM 32.9°F0.5°C 18.9°F-7.3°C 56% 9.0 mph NW14.5 kmh NW 14.0 mph22.5 kmh 30.19 in1022.4 mb 0.00 in0.0 mm 0.00 in0.0 mm 0.00 in0.0 mm
01:59 AM 32.7°F0.4°C 18.8°F-7.3°C 56% 10.0 mph NNW16.1 kmh NNW 13.0 mph20.9 kmh 30.18 in1022.0 mb 0.00 in0.0 mm 0.00 in0.0 mm 0.00 in0.0 mm
02:00 AM 32.7°F0.4°C 18.8°F-7.3°C 56% 8.0 mph NW12.9 kmh NW 14.0 mph22.5 kmh 30.19 in1022.4 mb 0.00 in0.0 mm 0.00 in0.0 mm 0.00 in0.0 mm
02:04 AM 32.7°F0.4°C 18.8°F-7.3°C 56% 11.0 mph NNW17.7 kmh NNW 15.0 mph24.1 kmh 30.19 in1022.4 mb 0.00 in0.0 mm 0.00 in0.0 mm 0.00 in0.0 mm
02:05 AM 32.7°F0.4°C 18.8°F-7.3°C 56% 20.0 mph NNW32.2 kmh NNW 25.0 mph40.2 kmh 30.18 in1022.0 mb 0.00 in0.0 mm 0.00 in0.0 mm 0.00 in0.0 mm
02:09 AM 32.9°F0.5°C 18.9°F-7.3°C 56% 9.0 mph NW14.5 kmh NW 16.0 mph25.7 kmh 30.18 in1022.0 mb 0.00 in0.0 mm 0.00 in0.0 mm 0.00 in0.0 mm
02:10 AM 32.9°F0.5°C 18.9°F-7.3°C 56% 17.0 mph NW27.4 kmh NW 21.0 mph33.8 kmh 30.19 in1022.4 mb 0.00 in0.0 mm 0.00 in0.0 mm 0.00 in0.0 mm
02:14 AM 33.0°F0.6°C 18.6°F-7.4°C 55% 13.0 mph NNW20.9 kmh NNW 14.0 mph22.5 kmh 30.19 in1022.4 mb 0.00 in0.0 mm 0.00 in0.0 mm 0.00 in0.0 mm
02:15 AM 32.9°F0.5°C 18.5°F-7.5°C 55% 16.0 mph NNW25.7 kmh NNW 19.0 mph30.6 kmh 30.19 in1022.4 mb 0.00 in0.0 mm 0.00 in0.0 mm 0.00 in0.0 mm
02:19 AM 33.0°F0.6°C 17.8°F-7.9°C 53% 10.0 mph NNW16.1 kmh NNW 18.0 mph29.0 kmh 30.19 in1022.4 mb 0.00 in0.0 mm 0.00 in0.0 mm 0.00 in0.0 mm
02:20 AM 33.0°F0.6°C 17.8°F-7.9°C 53% 9.0 mph NW14.5 kmh NW 21.0 mph33.8 kmh 30.19 in1022.4 mb 0.00 in0.0 mm 0.00 in0.0 mm 0.00 in0.0 mm
02:24 AM 33.0°F0.6°C 17.3°F-8.2°C 52% 14.0 mph NW22.5 kmh NW 19.0 mph30.6 kmh 30.18 in1022.0 mb 0.00 in0.0 mm 0.00 in0.0 mm 0.00 in0.0 mm
02:25 AM 33.0°F0.6°C 17.3°F-8.2°C 52% 16.0 mph NNW25.7 kmh NNW 23.0 mph37.0 kmh 30.19 in1022.4 mb 0.00 in0.0 mm 0.00 in0.0 mm 0.00 in0.0 mm
02:29 AM 33.1°F0.6°C 16.5°F-8.6°C 50% 14.0 mph NNW22.5 kmh NNW 26.0 mph41.8 kmh 30.18 in1022.0 mb 0.00 in0.0 mm 0.00 in0.0 mm 0.00 in0.0 mm
02:30 AM 33.1°F0.6°C 16.5°F-8.6°C 50% 13.0 mph NNW20.9 kmh NNW 25.0 mph40.2 kmh 30.18 in1022.0 mb 0.00 in0.0 mm 0.00 in0.0 mm 0.00 in0.0 mm
02:34 AM 33.1°F0.6°C 17.0°F-8.3°C 51% 10.0 mph N16.1 kmh N 21.0 mph33.8 kmh 30.18 in1022.0 mb 0.00 in0.0 mm 0.00 in0.0 mm 0.00 in0.0 mm
02:35 AM 33.1°F0.6°C 17.0°F-8.3°C 51% 13.0 mph N20.9 kmh N 18.0 mph29.0 kmh 30.18 in1022.0 mb 0.00 in0.0 mm 0.00 in0.0 mm 0.00 in0.0 mm
02:39 AM 33.0°F0.6°C 16.4°F-8.7°C 50% 10.0 mph NW16.1 kmh NW 19.0 mph30.6 kmh 30.18 in1022.0 mb 0.00 in0.0 mm 0.00 in0.0 mm 0.00 in0.0 mm
02:40 AM 33.0°F0.6°C 16.4°F-8.7°C 50% 17.0 mph NW27.4 kmh NW 21.0 mph33.8 kmh 30.18 in1022.0 mb 0.00 in0.0 mm 0.00 in0.0 mm 0.00 in0.0 mm
02:44 AM 32.9°F0.5°C 16.3°F-8.7°C 50% 17.0 mph NW27.4 kmh NW 26.0 mph41.8 kmh 30.18 in1022.0 mb 0.00 in0.0 mm 0.00 in0.0 mm 0.00 in0.0 mm
02:45 AM 33.0°F0.6°C 16.4°F-8.7°C 50% 9.0 mph N14.5 kmh N 20.0 mph32.2 kmh 30.19 in1022.4 mb 0.00 in0.0 mm 0.00 in0.0 mm 0.00 in0.0 mm
02:49 AM 33.0°F0.6°C 16.4°F-8.7°C 50% 14.0 mph NW22.5 kmh NW 18.0 mph29.0 kmh 30.19 in1022.4 mb 0.00 in0.0 mm 0.00 in0.0 mm 0.00 in0.0 mm
02:50 AM 33.0°F0.6°C 16.4°F-8.7°C 50% 7.0 mph NNW11.3 kmh NNW 22.0 mph35.4 kmh 30.19 in1022.4 mb 0.00 in0.0 mm 0.00 in0.0 mm 0.00 in0.0 mm
02:54 AM 33.0°F0.6°C 15.9°F-8.9°C 49% 13.0 mph NW20.9 kmh NW 18.0 mph29.0 kmh 30.19 in1022.4 mb 0.00 in0.0 mm 0.00 in0.0 mm 0.00 in0.0 mm
02:55 AM 33.0°F0.6°C 16.4°F-8.7°C 50% 14.0 mph NNW22.5 kmh NNW 20.0 mph32.2 kmh 30.19 in1022.4 mb 0.00 in0.0 mm 0.00 in0.0 mm 0.00 in0.0 mm
02:59 AM 33.0°F0.6°C 16.4°F-8.7°C 50% 22.0 mph NW35.4 kmh NW 22.0 mph35.4 kmh 30.20 in1022.7 mb 0.00 in0.0 mm 0.00 in0.0 mm 0.00 in0.0 mm
03:00 AM 33.0°F0.6°C 15.9°F-8.9°C 49% 11.0 mph NNW17.7 kmh NNW 22.0 mph35.4 kmh 30.19 in1022.4 mb 0.00 in0.0 mm 0.00 in0.0 mm 0.00 in0.0 mm
03:04 AM 33.0°F0.6°C 15.9°F-8.9°C 49% 15.0 mph NW24.1 kmh NW 18.0 mph29.0 kmh 30.20 in1022.7 mb 0.00 in0.0 mm 0.00 in0.0 mm 0.00 in0.0 mm
03:05 AM 33.0°F0.6°C 15.9°F-8.9°C 49% 12.0 mph NW19.3 kmh NW 20.0 mph32.2 kmh 30.20 in1022.7 mb 0.00 in0.0 mm 0.00 in0.0 mm 0.00 in0.0 mm
03:09 AM 32.9°F0.5°C 15.9°F-8.9°C 49% 13.0 mph NNW20.9 kmh NNW 16.0 mph25.7 kmh 30.20 in1022.7 mb 0.00 in0.0 mm 0.00 in0.0 mm 0.00 in0.0 mm
03:10 AM 32.9°F0.5°C 16.3°F-8.7°C 50% 14.0 mph WNW22.5 kmh WNW 16.0 mph25.7 kmh 30.20 in1022.7 mb 0.00 in0.0 mm 0.00 in0.0 mm 0.00 in0.0 mm
03:14 AM 32.9°F0.5°C 16.3°F-8.7°C 50% 18.0 mph NNW29.0 kmh NNW 18.0 mph29.0 kmh 30.20 in1022.7 mb 0.00 in0.0 mm 0.00 in0.0 mm 0.00 in0.0 mm
03:15 AM 32.9°F0.5°C 16.3°F-8.7°C 50% 13.0 mph NW20.9 kmh NW 18.0 mph29.0 kmh 30.20 in1022.7 mb 0.00 in0.0 mm 0.00 in0.0 mm 0.00 in0.0 mm
03:19 AM 32.8°F0.4°C 16.2°F-8.8°C 50% 7.0 mph NW11.3 kmh NW 18.0 mph29.0 kmh 30.20 in1022.7 mb 0.00 in0.0 mm 0.00 in0.0 mm 0.00 in0.0 mm
03:20 AM 32.8°F0.4°C 16.2°F-8.8°C 50% 9.0 mph NW14.5 kmh NW 11.0 mph17.7 kmh 30.20 in1022.7 mb 0.00 in0.0 mm 0.00 in0.0 mm 0.00 in0.0 mm
03:24 AM 32.7°F0.4°C 16.1°F-8.8°C 50% 12.0 mph NW19.3 kmh NW 19.0 mph30.6 kmh 30.20 in1022.7 mb 0.00 in0.0 mm 0.00 in0.0 mm 0.00 in0.0 mm
03:25 AM 32.7°F0.4°C 16.1°F-8.8°C 50% 17.0 mph NW27.4 kmh NW 23.0 mph37.0 kmh 30.20 in1022.7 mb 0.00 in0.0 mm 0.00 in0.0 mm 0.00 in0.0 mm
03:29 AM 32.7°F0.4°C 16.1°F-8.8°C 50% 7.0 mph NNW11.3 kmh NNW 17.0 mph27.4 kmh 30.20 in1022.7 mb 0.00 in0.0 mm 0.00 in0.0 mm 0.00 in0.0 mm
03:30 AM 32.7°F0.4°C 16.1°F-8.8°C 50% 8.0 mph NW12.9 kmh NW 14.0 mph22.5 kmh 30.20 in1022.7 mb 0.00 in0.0 mm 0.00 in0.0 mm 0.00 in0.0 mm
03:34 AM 32.7°F0.4°C 16.1°F-8.8°C 50% 14.0 mph NW22.5 kmh NW 14.0 mph22.5 kmh 30.20 in1022.7 mb 0.00 in0.0 mm 0.00 in0.0 mm 0.00 in0.0 mm
03:35 AM 32.6°F0.3°C 16.0°F-8.9°C 50% 13.0 mph NW20.9 kmh NW 17.0 mph27.4 kmh 30.20 in1022.7 mb 0.00 in0.0 mm 0.00 in0.0 mm 0.00 in0.0 mm
03:39 AM 32.6°F0.3°C 16.5°F-8.6°C 51% 8.0 mph NW12.9 kmh NW 16.0 mph25.7 kmh 30.20 in1022.7 mb 0.00 in0.0 mm 0.00 in0.0 mm 0.00 in0.0 mm
03:40 AM 32.6°F0.3°C 16.5°F-8.6°C 51% 9.0 mph NW14.5 kmh NW 16.0 mph25.7 kmh 30.20 in1022.7 mb 0.00 in0.0 mm 0.00 in0.0 mm 0.00 in0.0 mm
03:44 AM 32.5°F0.3°C 15.9°F-8.9°C 50% 12.0 mph WNW19.3 kmh WNW 18.0 mph29.0 kmh 30.20 in1022.7 mb 0.00 in0.0 mm 0.00 in0.0 mm 0.00 in0.0 mm
03:45 AM 32.5°F0.3°C 15.9°F-8.9°C 50% 9.0 mph NW14.5 kmh NW 15.0 mph24.1 kmh 30.20 in1022.7 mb 0.00 in0.0 mm 0.00 in0.0 mm 0.00 in0.0 mm
03:49 AM 32.6°F0.3°C 16.0°F-8.9°C 50% 13.0 mph NNW20.9 kmh NNW 23.0 mph37.0 kmh 30.20 in1022.7 mb 0.00 in0.0 mm 0.00 in0.0 mm 0.00 in0.0 mm
03:50 AM 32.6°F0.3°C 16.0°F-8.9°C 50% 11.0 mph NNW17.7 kmh NNW 17.0 mph27.4 kmh 30.20 in1022.7 mb 0.00 in0.0 mm 0.00 in0.0 mm 0.00 in0.0 mm
03:54 AM 32.6°F0.3°C 16.5°F-8.6°C 51% 14.0 mph WNW22.5 kmh WNW 16.0 mph25.7 kmh 30.20 in1022.7 mb 0.00 in0.0 mm 0.00 in0.0 mm 0.00 in0.0 mm
03:55 AM 32.6°F0.3°C 16.5°F-8.6°C 51% 8.0 mph NW12.9 kmh NW 14.0 mph22.5 kmh 30.20 in1022.7 mb 0.00 in0.0 mm 0.00 in0.0 mm 0.00 in0.0 mm
03:59 AM 32.5°F0.3°C 15.9°F-8.9°C 50% 10.0 mph NNW16.1 kmh NNW 16.0 mph25.7 kmh 30.20 in1022.7 mb 0.00 in0.0 mm 0.00 in0.0 mm 0.00 in0.0 mm
04:00 AM 32.5°F0.3°C 16.4°F-8.7°C 51% 14.0 mph NW22.5 kmh NW 14.0 mph22.5 kmh 30.20 in1022.7 mb 0.00 in0.0 mm 0.00 in0.0 mm 0.00 in0.0 mm
04:04 AM 32.6°F0.3°C 16.0°F-8.9°C 50% 8.0 mph NNW12.9 kmh NNW 12.0 mph19.3 kmh 30.20 in1022.7 mb 0.00 in0.0 mm 0.00 in0.0 mm 0.00 in0.0 mm
04:05 AM 32.6°F0.3°C 16.5°F-8.6°C 51% 9.0 mph NW14.5 kmh NW 15.0 mph24.1 kmh 30.21 in1023.0 mb 0.00 in0.0 mm 0.00 in0.0 mm 0.00 in0.0 mm
04:09 AM 32.6°F0.3°C 16.0°F-8.9°C 50% 7.0 mph NW11.3 kmh NW 16.0 mph25.7 kmh 30.20 in1022.7 mb 0.00 in0.0 mm 0.00 in0.0 mm 0.00 in0.0 mm
04:10 AM 32.6°F0.3°C 16.0°F-8.9°C 50% 9.0 mph NNW14.5 kmh NNW 10.0 mph16.1 kmh 30.20 in1022.7 mb 0.00 in0.0 mm 0.00 in0.0 mm 0.00 in0.0 mm
04:14 AM 32.5°F0.3°C 15.9°F-8.9°C 50% 14.0 mph NW22.5 kmh NW 18.0 mph29.0 kmh 30.21 in1023.0 mb 0.00 in0.0 mm 0.00 in0.0 mm 0.00 in0.0 mm
04:15 AM 32.5°F0.3°C 15.9°F-8.9°C 50% 11.0 mph NW17.7 kmh NW 17.0 mph27.4 kmh 30.20 in1022.7 mb 0.00 in0.0 mm 0.00 in0.0 mm 0.00 in0.0 mm
04:19 AM 32.6°F0.3°C 16.0°F-8.9°C 50% 16.0 mph NW25.7 kmh NW 18.0 mph29.0 kmh 30.20 in1022.7 mb 0.00 in0.0 mm 0.00 in0.0 mm 0.00 in0.0 mm
04:20 AM 32.7°F0.4°C 16.1°F-8.8°C 50% 16.0 mph N25.7 kmh N 16.0 mph25.7 kmh 30.20 in1022.7 mb 0.00 in0.0 mm 0.00 in0.0 mm 0.00 in0.0 mm
04:24 AM 32.8°F0.4°C 16.2°F-8.8°C 50% 9.0 mph NNW14.5 kmh NNW 17.0 mph27.4 kmh 30.20 in1022.7 mb 0.00 in0.0 mm 0.00 in0.0 mm 0.00 in0.0 mm
04:25 AM 32.8°F0.4°C 16.2°F-8.8°C 50% 13.0 mph NW20.9 kmh NW 13.0 mph20.9 kmh 30.20 in1022.7 mb 0.00 in0.0 mm 0.00 in0.0 mm 0.00 in0.0 mm
04:29 AM 32.6°F0.3°C 16.0°F-8.9°C 50% 7.0 mph NNW11.3 kmh NNW 13.0 mph20.9 kmh 30.21 in1023.0 mb 0.00 in0.0 mm 0.00 in0.0 mm 0.00 in0.0 mm
04:30 AM 32.6°F0.3°C 16.0°F-8.9°C 50% 16.0 mph NW25.7 kmh NW 16.0 mph25.7 kmh 30.20 in1022.7 mb 0.00 in0.0 mm 0.00 in0.0 mm 0.00 in0.0 mm
04:34 AM 32.5°F0.3°C 15.9°F-8.9°C 50% 12.0 mph NW19.3 kmh NW 19.0 mph30.6 kmh 30.21 in1023.0 mb 0.00 in0.0 mm 0.00 in0.0 mm 0.00 in0.0 mm
04:35 AM 32.6°F0.3°C 16.0°F-8.9°C 50% 13.0 mph NW20.9 kmh NW 19.0 mph30.6 kmh 30.21 in1023.0 mb 0.00 in0.0 mm 0.00 in0.0 mm 0.00 in0.0 mm
04:39 AM 32.6°F0.3°C 16.0°F-8.9°C 50% 10.0 mph NW16.1 kmh NW 15.0 mph24.1 kmh 30.21 in1023.0 mb 0.00 in0.0 mm 0.00 in0.0 mm 0.00 in0.0 mm
04:40 AM 32.6°F0.3°C 16.0°F-8.9°C 50% 10.0 mph NW16.1 kmh NW 13.0 mph20.9 kmh 30.21 in1023.0 mb 0.00 in0.0 mm 0.00 in0.0 mm 0.00 in0.0 mm
04:44 AM 32.5°F0.3°C 15.9°F-8.9°C 50% 8.0 mph NW12.9 kmh NW 17.0 mph27.4 kmh 30.21 in1023.0 mb 0.00 in0.0 mm 0.00 in0.0 mm 0.00 in0.0 mm
04:45 AM 32.5°F0.3°C 15.9°F-8.9°C 50% 12.0 mph NNW19.3 kmh NNW 12.0 mph19.3 kmh 30.21 in1023.0 mb 0.00 in0.0 mm 0.00 in0.0 mm 0.00 in0.0 mm
04:49 AM 32.5°F0.3°C 16.4°F-8.7°C 51% 19.0 mph WNW30.6 kmh WNW 19.0 mph30.6 kmh 30.22 in1023.4 mb 0.00 in0.0 mm 0.00 in0.0 mm 0.00 in0.0 mm
04:50 AM 32.5°F0.3°C 15.9°F-8.9°C 50% 10.0 mph NW16.1 kmh NW 20.0 mph32.2 kmh 30.21 in1023.0 mb 0.00 in0.0 mm 0.00 in0.0 mm 0.00 in0.0 mm
04:54 AM 32.5°F0.3°C 16.4°F-8.7°C 51% 9.0 mph WNW14.5 kmh WNW 13.0 mph20.9 kmh 30.21 in1023.0 mb 0.00 in0.0 mm 0.00 in0.0 mm 0.00 in0.0 mm
04:55 AM 32.5°F0.3°C 15.9°F-8.9°C 50% 7.0 mph NW11.3 kmh NW 14.0 mph22.5 kmh 30.21 in1023.0 mb 0.00 in0.0 mm 0.00 in0.0 mm 0.00 in0.0 mm
04:59 AM 32.4°F0.2°C 15.9°F-8.9°C 50% 10.0 mph WNW16.1 kmh WNW 14.0 mph22.5 kmh 30.21 in1023.0 mb 0.00 in0.0 mm 0.00 in0.0 mm 0.00 in0.0 mm
05:00 AM 32.4°F0.2°C 16.3°F-8.7°C 51% 8.0 mph N12.9 kmh N 11.0 mph17.7 kmh 30.22 in1023.4 mb 0.00 in0.0 mm 0.00 in0.0 mm 0.00 in0.0 mm
05:04 AM 32.4°F0.2°C 16.3°F-8.7°C 51% 7.0 mph NW11.3 kmh NW 12.0 mph19.3 kmh 30.22 in1023.4 mb 0.00 in0.0 mm 0.00 in0.0 mm 0.00 in0.0 mm
05:05 AM 32.3°F0.2°C 16.2°F-8.8°C 51% 9.0 mph NW14.5 kmh NW 10.0 mph16.1 kmh 30.22 in1023.4 mb 0.00 in0.0 mm 0.00 in0.0 mm 0.00 in0.0 mm
05:09 AM 32.2°F0.1°C 16.1°F-8.8°C 51% 5.0 mph NW8.0 kmh NW 10.0 mph16.1 kmh 30.22 in1023.4 mb 0.00 in0.0 mm 0.00 in0.0 mm 0.00 in0.0 mm
05:10 AM 32.2°F0.1°C 16.1°F-8.8°C 51% 10.0 mph NW16.1 kmh NW 11.0 mph17.7 kmh 30.22 in1023.4 mb 0.00 in0.0 mm 0.00 in0.0 mm 0.00 in0.0 mm
05:14 AM 32.2°F0.1°C 16.1°F-8.8°C 51% 8.0 mph NW12.9 kmh NW 11.0 mph17.7 kmh 30.22 in1023.4 mb 0.00 in0.0 mm 0.00 in0.0 mm 0.00 in0.0 mm
05:15 AM 32.2°F0.1°C 16.1°F-8.8°C 51% 11.0 mph NNW17.7 kmh NNW 12.0 mph19.3 kmh 30.22 in1023.4 mb 0.00 in0.0 mm 0.00 in0.0 mm 0.00 in0.0 mm
05:19 AM 32.3°F0.2°C 16.2°F-8.8°C 51% 9.0 mph NW14.5 kmh NW 14.0 mph22.5 kmh 30.22 in1023.4 mb 0.00 in0.0 mm 0.00 in0.0 mm 0.00 in0.0 mm
05:20 AM 32.3°F0.2°C 16.2°F-8.8°C 51% 7.0 mph NW11.3 kmh NW 11.0 mph17.7 kmh 30.22 in1023.4 mb 0.00 in0.0 mm 0.00 in0.0 mm 0.00 in0.0 mm
05:24 AM 32.3°F0.2°C 16.2°F-8.8°C 51% 7.0 mph NNW11.3 kmh NNW 14.0 mph22.5 kmh 30.23 in1023.7 mb 0.00 in0.0 mm 0.00 in0.0 mm 0.00 in0.0 mm
05:25 AM 32.3°F0.2°C 16.2°F-8.8°C 51% 11.0 mph NW17.7 kmh NW 12.0 mph19.3 kmh 30.23 in1023.7 mb 0.00 in0.0 mm 0.00 in0.0 mm 0.00 in0.0 mm
05:29 AM 32.3°F0.2°C 16.2°F-8.8°C 51% 6.0 mph NW9.7 kmh NW 10.0 mph16.1 kmh 30.23 in1023.7 mb 0.00 in0.0 mm 0.00 in0.0 mm 0.00 in0.0 mm
05:30 AM 32.3°F0.2°C 16.2°F-8.8°C 51% 5.0 mph NNW8.0 kmh NNW 8.0 mph12.9 kmh 30.23 in1023.7 mb 0.00 in0.0 mm 0.00 in0.0 mm 0.00 in0.0 mm
05:34 AM 32.3°F0.2°C 16.2°F-8.8°C 51% 8.0 mph WNW12.9 kmh WNW 8.0 mph12.9 kmh 30.23 in1023.7 mb 0.00 in0.0 mm 0.00 in0.0 mm 0.00 in0.0 mm
05:35 AM 32.3°F0.2°C 16.2°F-8.8°C 51% 8.0 mph WNW12.9 kmh WNW 8.0 mph12.9 kmh 30.23 in1023.7 mb 0.00 in0.0 mm 0.00 in0.0 mm 0.00 in0.0 mm
05:39 AM 32.3°F0.2°C 16.2°F-8.8°C 51% 8.0 mph WNW12.9 kmh WNW 8.0 mph12.9 kmh 30.23 in1023.7 mb 0.00 in0.0 mm 0.00 in0.0 mm 0.00 in0.0 mm
05:40 AM 32.3°F0.2°C 16.2°F-8.8°C 51% 8.0 mph WNW12.9 kmh WNW 8.0 mph12.9 kmh 30.23 in1023.7 mb 0.00 in0.0 mm 0.00 in0.0 mm 0.00 in0.0 mm
05:44 AM 32.3°F0.2°C 16.2°F-8.8°C 51% 8.0 mph WNW12.9 kmh WNW 8.0 mph12.9 kmh 30.23 in1023.7 mb 0.00 in0.0 mm 0.00 in0.0 mm 0.00 in0.0 mm
05:45 AM 32.3°F0.2°C 16.2°F-8.8°C 51% 8.0 mph WNW12.9 kmh WNW 8.0 mph12.9 kmh 30.23 in1023.7 mb 0.00 in0.0 mm 0.00 in0.0 mm 0.00 in0.0 mm
05:49 AM 32.3°F0.2°C 16.2°F-8.8°C 51% 8.0 mph WNW12.9 kmh WNW 8.0 mph12.9 kmh 30.23 in1023.7 mb 0.00 in0.0 mm 0.00 in0.0 mm 0.00 in0.0 mm
05:50 AM 32.3°F0.2°C 16.2°F-8.8°C 51% 8.0 mph WNW12.9 kmh WNW 8.0 mph12.9 kmh 30.24 in1024.0 mb 0.00 in0.0 mm 0.00 in0.0 mm 0.00 in0.0 mm
05:54 AM 32.3°F0.2°C 16.2°F-8.8°C 51% 8.0 mph WNW12.9 kmh WNW 8.0 mph12.9 kmh 30.24 in1024.0 mb 0.00 in0.0 mm 0.00 in0.0 mm 0.00 in0.0 mm
05:55 AM 32.3°F0.2°C 16.2°F-8.8°C 51% 8.0 mph WNW12.9 kmh WNW 8.0 mph12.9 kmh 30.24 in1024.0 mb 0.00 in0.0 mm 0.00 in0.0 mm 0.00 in0.0 mm
05:59 AM 32.1°F0.1°C 16.5°F-8.6°C 52% 6.0 mph NW9.7 kmh NW 8.0 mph12.9 kmh 30.24 in1024.0 mb 0.00 in0.0 mm 0.00 in0.0 mm 0.00 in0.0 mm
06:00 AM 32.1°F0.1°C 16.5°F-8.6°C 52% 6.0 mph NW9.7 kmh NW 6.0 mph9.7 kmh 30.24 in1024.0 mb 0.00 in0.0 mm 0.00 in0.0 mm 0.00 in0.0 mm
06:04 AM 32.0°F0.0°C 16.4°F-8.7°C 52% 5.0 mph NW8.0 kmh NW 10.0 mph16.1 kmh 30.24 in1024.0 mb 0.00 in0.0 mm 0.00 in0.0 mm 0.00 in0.0 mm
06:05 AM 32.0°F0.0°C 16.4°F-8.7°C 52% 2.0 mph NW3.2 kmh NW 7.0 mph11.3 kmh 30.24 in1024.0 mb 0.00 in0.0 mm 0.00 in0.0 mm 0.00 in0.0 mm
06:09 AM 31.9°F-0.1°C 16.3°F-8.7°C 52% 6.0 mph NNW9.7 kmh NNW 7.0 mph11.3 kmh 30.24 in1024.0 mb 0.00 in0.0 mm 0.00 in0.0 mm 0.00 in0.0 mm
06:10 AM 31.9°F-0.1°C 16.3°F-8.7°C 52% 2.0 mph N3.2 kmh N 7.0 mph11.3 kmh 30.24 in1024.0 mb 0.00 in0.0 mm 0.00 in0.0 mm 0.00 in0.0 mm
06:14 AM 31.8°F-0.1°C 16.2°F-8.8°C 52% 4.0 mph NNW6.4 kmh NNW 7.0 mph11.3 kmh 30.24 in1024.0 mb 0.00 in0.0 mm 0.00 in0.0 mm 0.00 in0.0 mm
06:15 AM 31.8°F-0.1°C 16.2°F-8.8°C 52% 3.0 mph NNW4.8 kmh NNW 7.0 mph11.3 kmh 30.24 in1024.0 mb 0.00 in0.0 mm 0.00 in0.0 mm 0.00 in0.0 mm
06:19 AM 31.8°F-0.1°C 16.2°F-8.8°C 52% 2.0 mph N3.2 kmh N 5.0 mph8.0 kmh 30.24 in1024.0 mb 0.00 in0.0 mm 0.00 in0.0 mm 0.00 in0.0 mm
06:20 AM 31.7°F-0.2°C 16.5°F-8.6°C 53% 4.0 mph NNW6.4 kmh NNW 5.0 mph8.0 kmh 30.24 in1024.0 mb 0.00 in0.0 mm 0.00 in0.0 mm 0.00 in0.0 mm
06:24 AM 31.7°F-0.2°C 16.5°F-8.6°C 53% 2.0 mph NNW3.2 kmh NNW 3.0 mph4.8 kmh 30.24 in1024.0 mb 0.00 in0.0 mm 0.00 in0.0 mm 0.00 in0.0 mm
06:25 AM 31.7°F-0.2°C 16.5°F-8.6°C 53% 2.0 mph NNW3.2 kmh NNW 3.0 mph4.8 kmh 30.24 in1024.0 mb 0.00 in0.0 mm 0.00 in0.0 mm 0.00 in0.0 mm
06:29 AM 31.6°F-0.2°C 16.5°F-8.6°C 53% 2.0 mph NNW3.2 kmh NNW 3.0 mph4.8 kmh 30.24 in1024.0 mb 0.00 in0.0 mm 0.00 in0.0 mm 0.00 in0.0 mm
06:30 AM 31.6°F-0.2°C 16.5°F-8.6°C 53% 2.0 mph NNW3.2 kmh NNW 5.0 mph8.0 kmh 30.24 in1024.0 mb 0.00 in0.0 mm 0.00 in0.0 mm 0.00 in0.0 mm
06:34 AM 31.5°F-0.3°C 16.4°F-8.7°C 53% 2.0 mph NNW3.2 kmh NNW 3.0 mph4.8 kmh 30.25 in1024.4 mb 0.00 in0.0 mm 0.00 in0.0 mm 0.00 in0.0 mm
06:35 AM 31.5°F-0.3°C 16.4°F-8.7°C 53% Calm Calm 5.0 mph8.0 kmh 30.25 in1024.4 mb 0.00 in0.0 mm 0.00 in0.0 mm 0.00 in0.0 mm
06:39 AM 31.5°F-0.3°C 16.4°F-8.7°C 53% Calm Calm 1.0 mph1.6 kmh 30.25 in1024.4 mb 0.00 in0.0 mm 0.00 in0.0 mm 0.00 in0.0 mm
06:40 AM 31.5°F-0.3°C 16.4°F-8.7°C 53% Calm Calm -- 30.25 in1024.4 mb 0.00 in0.0 mm 0.00 in0.0 mm 0.00 in0.0 mm
06:44 AM 31.4°F-0.3°C 16.3°F-8.7°C 53% Calm Calm 3.0 mph4.8 kmh 30.25 in1024.4 mb 0.00 in0.0 mm 0.00 in0.0 mm 0.00 in0.0 mm
06:45 AM 31.4°F-0.3°C 16.3°F-8.7°C 53% Calm Calm 1.0 mph1.6 kmh 30.25 in1024.4 mb 0.00 in0.0 mm 0.00 in0.0 mm 0.00 in0.0 mm
06:49 AM 31.4°F-0.3°C 16.3°F-8.7°C 53% Calm Calm 2.0 mph3.2 kmh 30.25 in1024.4 mb 0.00 in0.0 mm 0.00 in0.0 mm 0.00 in0.0 mm
06:50 AM 31.4°F-0.3°C 16.3°F-8.7°C 53% Calm Calm 2.0 mph3.2 kmh 30.25 in1024.4 mb 0.00 in0.0 mm 0.00 in0.0 mm 0.00 in0.0 mm
06:54 AM 31.4°F-0.3°C 16.7°F-8.5°C 54% Calm Calm 1.0 mph1.6 kmh 30.26 in1024.7 mb 0.00 in0.0 mm 0.00 in0.0 mm 0.00 in0.0 mm
06:55 AM 31.3°F-0.4°C 16.6°F-8.6°C 54% Calm Calm 1.0 mph1.6 kmh 30.26 in1024.7 mb 0.00 in0.0 mm 0.00 in0.0 mm 0.00 in0.0 mm
06:59 AM 31.3°F-0.4°C 16.6°F-8.6°C 54% Calm Calm 1.0 mph1.6 kmh 30.26 in1024.7 mb 0.00 in0.0 mm 0.00 in0.0 mm 0.00 in0.0 mm
07:00 AM 31.2°F-0.4°C 16.5°F-8.6°C 54% 1.0 mph NNW1.6 kmh NNW 1.0 mph1.6 kmh 30.26 in1024.7 mb 0.00 in0.0 mm 0.00 in0.0 mm 0.00 in0.0 mm
07:04 AM 31.1°F-0.5°C 16.4°F-8.7°C 54% Calm Calm -- 30.26 in1024.7 mb 0.00 in0.0 mm 0.00 in0.0 mm 0.00 in0.0 mm
07:05 AM 31.1°F-0.5°C 16.4°F-8.7°C 54% Calm Calm -- 30.26 in1024.7 mb 0.00 in0.0 mm 0.00 in0.0 mm 0.00 in0.0 mm
07:09 AM 31.0°F-0.6°C 16.3°F-8.7°C 54% 1.0 mph NNW1.6 kmh NNW 2.0 mph3.2 kmh 30.26 in1024.7 mb 0.00 in0.0 mm 0.00 in0.0 mm 0.00 in0.0 mm
07:10 AM 31.0°F-0.6°C 16.3°F-8.7°C 54% Calm Calm 2.0 mph3.2 kmh 30.27 in1025.1 mb 0.00 in0.0 mm 0.00 in0.0 mm 0.00 in0.0 mm
07:14 AM 31.0°F-0.6°C 16.7°F-8.5°C 55% Calm Calm -- 30.27 in1025.1 mb 0.00 in0.0 mm 0.00 in0.0 mm 0.00 in0.0 mm
07:15 AM 30.9°F-0.6°C 16.7°F-8.5°C 55% Calm Calm -- 30.27 in1025.1 mb 0.00 in0.0 mm 0.00 in0.0 mm 0.00 in0.0 mm
07:19 AM 30.9°F-0.6°C 16.7°F-8.5°C 55% Calm Calm 1.0 mph1.6 kmh 30.27 in1025.1 mb 0.00 in0.0 mm 0.00 in0.0 mm 0.00 in0.0 mm
07:20 AM 30.8°F-0.7°C 16.6°F-8.6°C 55% Calm Calm -- 30.27 in1025.1 mb 0.00 in0.0 mm 0.00 in0.0 mm 0.00 in0.0 mm
07:24 AM 30.7°F-0.7°C 16.0°F-8.9°C 54% Calm Calm -- 30.27 in1025.1 mb 0.00 in0.0 mm 0.00 in0.0 mm 0.00 in0.0 mm
07:25 AM 30.7°F-0.7°C 16.5°F-8.6°C 55% Calm Calm 1.0 mph1.6 kmh 30.28 in1025.4 mb 0.00 in0.0 mm 0.00 in0.0 mm 0.00 in0.0 mm
07:29 AM 30.7°F-0.7°C 16.5°F-8.6°C 55% 3.0 mph NNW4.8 kmh NNW 4.0 mph6.4 kmh 30.28 in1025.4 mb 0.00 in0.0 mm 0.00 in0.0 mm 0.00 in0.0 mm
07:30 AM 30.8°F-0.7°C 16.6°F-8.6°C 55% 2.0 mph NNW3.2 kmh NNW 4.0 mph6.4 kmh 30.28 in1025.4 mb 0.00 in0.0 mm 0.00 in0.0 mm 0.00 in0.0 mm
07:34 AM 30.8°F-0.7°C 16.6°F-8.6°C 55% 1.0 mph NNW1.6 kmh NNW 3.0 mph4.8 kmh 30.28 in1025.4 mb 0.00 in0.0 mm 0.00 in0.0 mm 0.00 in0.0 mm
07:35 AM 30.9°F-0.6°C 16.7°F-8.5°C 55% 1.0 mph NNW1.6 kmh NNW 2.0 mph3.2 kmh 30.28 in1025.4 mb 0.00 in0.0 mm 0.00 in0.0 mm 0.00 in0.0 mm
07:39 AM 31.0°F-0.6°C 16.7°F-8.5°C 55% 1.0 mph NNW1.6 kmh NNW 5.0 mph8.0 kmh 30.28 in1025.4 mb 0.00 in0.0 mm 0.00 in0.0 mm 0.00 in0.0 mm
07:40 AM 31.1°F-0.5°C 16.8°F-8.4°C 55% 1.0 mph NNW1.6 kmh NNW 2.0 mph3.2 kmh 30.29 in1025.7 mb 0.00 in0.0 mm 0.00 in0.0 mm 0.00 in0.0 mm
07:44 AM 31.2°F-0.4°C 17.3°F-8.2°C 56% 3.0 mph NNW4.8 kmh NNW 4.0 mph6.4 kmh 30.29 in1025.7 mb 0.00 in0.0 mm 0.00 in0.0 mm 0.00 in0.0 mm
07:45 AM 31.1°F-0.5°C 17.7°F-7.9°C 57% 4.0 mph NNW6.4 kmh NNW 5.0 mph8.0 kmh 30.29 in1025.7 mb 0.00 in0.0 mm 0.00 in0.0 mm 0.00 in0.0 mm
07:49 AM 31.3°F-0.4°C 17.9°F-7.8°C 57% 6.0 mph NNW9.7 kmh NNW 7.0 mph11.3 kmh 30.29 in1025.7 mb 0.00 in0.0 mm 0.00 in0.0 mm 0.00 in0.0 mm
07:50 AM 31.3°F-0.4°C 17.4°F-8.1°C 56% 5.0 mph NNW8.0 kmh NNW 8.0 mph12.9 kmh 30.29 in1025.7 mb 0.00 in0.0 mm 0.00 in0.0 mm 0.00 in0.0 mm
07:54 AM 31.6°F-0.2°C 18.1°F-7.7°C 57% 6.0 mph NW9.7 kmh NW 6.0 mph9.7 kmh 30.29 in1025.7 mb 0.00 in0.0 mm 0.00 in0.0 mm 0.00 in0.0 mm
07:55 AM 31.6°F-0.2°C 17.7°F-7.9°C 56% 7.0 mph NW11.3 kmh NW 10.0 mph16.1 kmh 30.29 in1025.7 mb 0.00 in0.0 mm 0.00 in0.0 mm 0.00 in0.0 mm
07:59 AM 32.0°F0.0°C 18.1°F-7.7°C 56% 2.0 mph NW3.2 kmh NW 7.0 mph11.3 kmh 30.29 in1025.7 mb 0.00 in0.0 mm 0.00 in0.0 mm 0.00 in0.0 mm
08:00 AM 32.0°F0.0°C 18.1°F-7.7°C 56% 5.0 mph N8.0 kmh N 8.0 mph12.9 kmh 30.29 in1025.7 mb 0.00 in0.0 mm 0.00 in0.0 mm 0.00 in0.0 mm
08:04 AM 32.3°F0.2°C 18.4°F-7.6°C 56% 5.0 mph N8.0 kmh N 8.0 mph12.9 kmh 30.29 in1025.7 mb 0.00 in0.0 mm 0.00 in0.0 mm 0.00 in0.0 mm
08:05 AM 32.4°F0.2°C 18.5°F-7.5°C 56% 11.0 mph N17.7 kmh N 11.0 mph17.7 kmh 30.29 in1025.7 mb 0.00 in0.0 mm 0.00 in0.0 mm 0.00 in0.0 mm
08:09 AM 32.8°F0.4°C 18.8°F-7.3°C 56% 7.0 mph NW11.3 kmh NW 7.0 mph11.3 kmh 30.30 in1026.1 mb 0.00 in0.0 mm 0.00 in0.0 mm 0.00 in0.0 mm
08:10 AM 32.9°F0.5°C 18.9°F-7.3°C 56% 7.0 mph NNW11.3 kmh NNW 11.0 mph17.7 kmh 30.30 in1026.1 mb 0.00 in0.0 mm 0.00 in0.0 mm 0.00 in0.0 mm
08:14 AM 33.2°F0.7°C 19.2°F-7.1°C 56% 8.0 mph N12.9 kmh N 12.0 mph19.3 kmh 30.30 in1026.1 mb 0.00 in0.0 mm 0.00 in0.0 mm 0.00 in0.0 mm
08:15 AM 33.3°F0.7°C 19.3°F-7.1°C 56% 6.0 mph N9.7 kmh N 11.0 mph17.7 kmh 30.30 in1026.1 mb 0.00 in0.0 mm 0.00 in0.0 mm 0.00 in0.0 mm
08:19 AM 33.6°F0.9°C 19.2°F-7.1°C 55% 14.0 mph NW22.5 kmh NW 14.0 mph22.5 kmh 30.30 in1026.1 mb 0.00 in0.0 mm 0.00 in0.0 mm 0.00 in0.0 mm
08:20 AM 33.7°F0.9°C 19.3°F-7.1°C 55% 10.0 mph NNW16.1 kmh NNW 14.0 mph22.5 kmh 30.30 in1026.1 mb 0.00 in0.0 mm 0.00 in0.0 mm 0.00 in0.0 mm
08:24 AM 34.0°F1.1°C 19.6°F-6.9°C 55% 10.0 mph NW16.1 kmh NW 16.0 mph25.7 kmh 30.30 in1026.1 mb 0.00 in0.0 mm 0.00 in0.0 mm 0.00 in0.0 mm
08:25 AM 34.1°F1.2°C 19.2°F-7.1°C 54% 8.0 mph N12.9 kmh N 15.0 mph24.1 kmh 30.30 in1026.1 mb 0.00 in0.0 mm 0.00 in0.0 mm 0.00 in0.0 mm
08:29 AM 34.2°F1.2°C 19.3°F-7.1°C 54% 9.0 mph W14.5 kmh W 14.0 mph22.5 kmh 30.30 in1026.1 mb 0.00 in0.0 mm 0.00 in0.0 mm 0.00 in0.0 mm
08:30 AM 34.3°F1.3°C 19.4°F-7.0°C 54% 7.0 mph NNW11.3 kmh NNW 11.0 mph17.7 kmh 30.30 in1026.1 mb 0.00 in0.0 mm 0.00 in0.0 mm 0.00 in0.0 mm
08:34 AM 34.4°F1.3°C 19.5°F-6.9°C 54% 13.0 mph NW20.9 kmh NW 14.0 mph22.5 kmh 30.31 in1026.4 mb 0.00 in0.0 mm 0.00 in0.0 mm 0.00 in0.0 mm
08:35 AM 34.4°F1.3°C 19.5°F-6.9°C 54% 11.0 mph NW17.7 kmh NW 14.0 mph22.5 kmh 30.31 in1026.4 mb 0.00 in0.0 mm 0.00 in0.0 mm 0.00 in0.0 mm
08:39 AM 34.6°F1.4°C 19.7°F-6.8°C 54% 6.0 mph NNW9.7 kmh NNW 9.0 mph14.5 kmh 30.31 in1026.4 mb 0.00 in0.0 mm 0.00 in0.0 mm 0.00 in0.0 mm
08:40 AM 34.7°F1.5°C 19.8°F-6.8°C 54% 7.0 mph N11.3 kmh N 13.0 mph20.9 kmh 30.31 in1026.4 mb 0.00 in0.0 mm 0.00 in0.0 mm 0.00 in0.0 mm
08:44 AM 34.8°F1.6°C 19.9°F-6.7°C 54% 8.0 mph NW12.9 kmh NW 14.0 mph22.5 kmh 30.32 in1026.8 mb 0.00 in0.0 mm 0.00 in0.0 mm 0.00 in0.0 mm
08:45 AM 35.0°F1.7°C 20.1°F-6.6°C 54% 10.0 mph NW16.1 kmh NW 12.0 mph19.3 kmh 30.32 in1026.8 mb 0.00 in0.0 mm 0.00 in0.0 mm 0.00 in0.0 mm
08:49 AM 35.0°F1.7°C 20.1°F-6.6°C 54% 10.0 mph WNW16.1 kmh WNW 10.0 mph16.1 kmh 30.32 in1026.8 mb 0.00 in0.0 mm 0.00 in0.0 mm 0.00 in0.0 mm
08:50 AM 35.1°F1.7°C 20.1°F-6.6°C 54% 6.0 mph NW9.7 kmh NW 11.0 mph17.7 kmh 30.32 in1026.8 mb 0.00 in0.0 mm 0.00 in0.0 mm 0.00 in0.0 mm
08:54 AM 35.3°F1.8°C 19.9°F-6.7°C 53% 6.0 mph NW9.7 kmh NW 15.0 mph24.1 kmh 30.32 in1026.8 mb 0.00 in0.0 mm 0.00 in0.0 mm 0.00 in0.0 mm
08:55 AM 35.4°F1.9°C 20.0°F-6.7°C 53% 10.0 mph NNW16.1 kmh NNW 16.0 mph25.7 kmh 30.32 in1026.8 mb 0.00 in0.0 mm 0.00 in0.0 mm 0.00 in0.0 mm
08:59 AM 35.5°F1.9°C 20.1°F-6.6°C 53% 10.0 mph NW16.1 kmh NW 16.0 mph25.7 kmh 30.32 in1026.8 mb 0.00 in0.0 mm 0.00 in0.0 mm 0.00 in0.0 mm
09:00 AM 35.5°F1.9°C 20.1°F-6.6°C 53% 10.0 mph NNW16.1 kmh NNW 13.0 mph20.9 kmh 30.32 in1026.8 mb 0.00 in0.0 mm 0.00 in0.0 mm 0.00 in0.0 mm
09:04 AM 35.6°F2.0°C 20.2°F-6.6°C 53% 8.0 mph NW12.9 kmh NW 11.0 mph17.7 kmh 30.32 in1026.8 mb 0.00 in0.0 mm 0.00 in0.0 mm 0.00 in0.0 mm
09:05 AM 35.7°F2.1°C 20.7°F-6.3°C 54% 12.0 mph NW19.3 kmh NW 12.0 mph19.3 kmh 30.32 in1026.8 mb 0.00 in0.0 mm 0.00 in0.0 mm 0.00 in0.0 mm
09:09 AM 36.0°F2.2°C 20.5°F-6.4°C 53% 7.0 mph N11.3 kmh N 16.0 mph25.7 kmh 30.33 in1027.1 mb 0.00 in0.0 mm 0.00 in0.0 mm 0.00 in0.0 mm
09:10 AM 36.0°F2.2°C 20.5°F-6.4°C 53% 13.0 mph NNW20.9 kmh NNW 13.0 mph20.9 kmh 30.33 in1027.1 mb 0.00 in0.0 mm 0.00 in0.0 mm 0.00 in0.0 mm
09:14 AM 36.0°F2.2°C 20.5°F-6.4°C 53% 12.0 mph NW19.3 kmh NW 16.0 mph25.7 kmh 30.33 in1027.1 mb 0.00 in0.0 mm 0.00 in0.0 mm 0.00 in0.0 mm
09:15 AM 36.1°F2.3°C 20.2°F-6.6°C 52% 10.0 mph NW16.1 kmh NW 16.0 mph25.7 kmh 30.33 in1027.1 mb 0.00 in0.0 mm 0.00 in0.0 mm 0.00 in0.0 mm
09:19 AM 36.2°F2.3°C 20.3°F-6.5°C 52% 10.0 mph NW16.1 kmh NW 15.0 mph24.1 kmh 30.32 in1026.8 mb 0.00 in0.0 mm 0.00 in0.0 mm 0.00 in0.0 mm
09:20 AM 36.2°F2.3°C 20.3°F-6.5°C 52% 15.0 mph N24.1 kmh N 15.0 mph24.1 kmh 30.32 in1026.8 mb 0.00 in0.0 mm 0.00 in0.0 mm 0.00 in0.0 mm
09:24 AM 36.5°F2.5°C 21.0°F-6.1°C 53% 8.0 mph NW12.9 kmh NW 15.0 mph24.1 kmh 30.32 in1026.8 mb 0.00 in0.0 mm 0.00 in0.0 mm 0.00 in0.0 mm
09:25 AM 36.6°F2.6°C 21.1°F-6.1°C 53% 8.0 mph NNW12.9 kmh NNW 12.0 mph19.3 kmh 30.32 in1026.8 mb 0.00 in0.0 mm 0.00 in0.0 mm 0.00 in0.0 mm
09:29 AM 37.1°F2.8°C 21.6°F-5.8°C 53% 9.0 mph N14.5 kmh N 16.0 mph25.7 kmh 30.32 in1026.8 mb 0.00 in0.0 mm 0.00 in0.0 mm 0.00 in0.0 mm
09:30 AM 37.1°F2.8°C 21.1°F-6.1°C 52% 12.0 mph NNW19.3 kmh NNW 17.0 mph27.4 kmh 30.32 in1026.8 mb 0.00 in0.0 mm 0.00 in0.0 mm 0.00 in0.0 mm
09:34 AM 37.4°F3.0°C 21.4°F-5.9°C 52% 7.0 mph N11.3 kmh N 9.0 mph14.5 kmh 30.33 in1027.1 mb 0.00 in0.0 mm 0.00 in0.0 mm 0.00 in0.0 mm
09:35 AM 37.5°F3.1°C 21.5°F-5.8°C 52% 8.0 mph NNW12.9 kmh NNW 11.0 mph17.7 kmh 30.33 in1027.1 mb 0.00 in0.0 mm 0.00 in0.0 mm 0.00 in0.0 mm
09:39 AM 37.5°F3.1°C 21.0°F-6.1°C 51% 7.0 mph NNE11.3 kmh NNE 13.0 mph20.9 kmh 30.33 in1027.1 mb 0.00 in0.0 mm 0.00 in0.0 mm 0.00 in0.0 mm
09:40 AM 37.5°F3.1°C 21.0°F-6.1°C 51% 9.0 mph NNW14.5 kmh NNW 15.0 mph24.1 kmh 30.33 in1027.1 mb 0.00 in0.0 mm 0.00 in0.0 mm 0.00 in0.0 mm
09:44 AM 37.3°F2.9°C 20.4°F-6.4°C 50% 13.0 mph N20.9 kmh N 13.0 mph20.9 kmh 30.33 in1027.1 mb 0.00 in0.0 mm 0.00 in0.0 mm 0.00 in0.0 mm
09:45 AM 37.3°F2.9°C 20.4°F-6.4°C 50% 20.0 mph NNW32.2 kmh NNW 20.0 mph32.2 kmh 30.33 in1027.1 mb 0.00 in0.0 mm 0.00 in0.0 mm 0.00 in0.0 mm
09:49 AM 37.4°F3.0°C 20.9°F-6.2°C 51% 13.0 mph N20.9 kmh N 19.0 mph30.6 kmh 30.33 in1027.1 mb 0.00 in0.0 mm 0.00 in0.0 mm 0.00 in0.0 mm
09:50 AM 37.4°F3.0°C 20.5°F-6.4°C 50% 12.0 mph N19.3 kmh N 17.0 mph27.4 kmh 30.33 in1027.1 mb 0.00 in0.0 mm 0.00 in0.0 mm 0.00 in0.0 mm
09:54 AM 37.5°F3.1°C 20.6°F-6.3°C 50% 17.0 mph N27.4 kmh N 20.0 mph32.2 kmh 30.33 in1027.1 mb 0.00 in0.0 mm 0.00 in0.0 mm 0.00 in0.0 mm
09:55 AM 37.5°F3.1°C 20.6°F-6.3°C 50% 14.0 mph NW22.5 kmh NW 18.0 mph29.0 kmh 30.33 in1027.1 mb 0.00 in0.0 mm 0.00 in0.0 mm 0.00 in0.0 mm
09:59 AM 37.5°F3.1°C 21.0°F-6.1°C 51% 12.0 mph N19.3 kmh N 17.0 mph27.4 kmh 30.32 in1026.8 mb 0.00 in0.0 mm 0.00 in0.0 mm 0.00 in0.0 mm
10:00 AM 37.6°F3.1°C 20.7°F-6.3°C 50% 13.0 mph N20.9 kmh N 18.0 mph29.0 kmh 30.32 in1026.8 mb 0.00 in0.0 mm 0.00 in0.0 mm 0.00 in0.0 mm
10:04 AM 37.8°F3.2°C 21.3°F-5.9°C 51% 11.0 mph NNW17.7 kmh NNW 13.0 mph20.9 kmh 30.33 in1027.1 mb 0.00 in0.0 mm 0.00 in0.0 mm 0.00 in0.0 mm
10:05 AM 37.9°F3.3°C 21.4°F-5.9°C 51% 6.0 mph NNW9.7 kmh NNW 15.0 mph24.1 kmh 30.33 in1027.1 mb 0.00 in0.0 mm 0.00 in0.0 mm 0.00 in0.0 mm
10:09 AM 38.1°F3.4°C 21.1°F-6.1°C 50% 4.0 mph N6.4 kmh N 10.0 mph16.1 kmh 30.34 in1027.4 mb 0.00 in0.0 mm 0.00 in0.0 mm 0.00 in0.0 mm
10:10 AM 38.1°F3.4°C 20.7°F-6.3°C 49% Calm Calm 5.0 mph8.0 kmh 30.34 in1027.4 mb 0.00 in0.0 mm 0.00 in0.0 mm 0.00 in0.0 mm
10:14 AM 38.5°F3.6°C 21.5°F-5.8°C 50% 16.0 mph NW25.7 kmh NW 18.0 mph29.0 kmh 30.34 in1027.4 mb 0.00 in0.0 mm 0.00 in0.0 mm 0.00 in0.0 mm
10:15 AM 38.5°F3.6°C 21.0°F-6.1°C 49% 10.0 mph NNW16.1 kmh NNW 18.0 mph29.0 kmh 30.34 in1027.4 mb 0.00 in0.0 mm 0.00 in0.0 mm 0.00 in0.0 mm
10:19 AM 38.4°F3.6°C 20.4°F-6.4°C 48% 13.0 mph N20.9 kmh N 20.0 mph32.2 kmh 30.34 in1027.4 mb 0.00 in0.0 mm 0.00 in0.0 mm 0.00 in0.0 mm
10:20 AM 38.3°F3.5°C 20.4°F-6.4°C 48% 16.0 mph NW25.7 kmh NW 20.0 mph32.2 kmh 30.34 in1027.4 mb 0.00 in0.0 mm 0.00 in0.0 mm 0.00 in0.0 mm
10:24 AM 38.2°F3.4°C 20.3°F-6.5°C 48% 15.0 mph NW24.1 kmh NW 20.0 mph32.2 kmh 30.33 in1027.1 mb 0.00 in0.0 mm 0.00 in0.0 mm 0.00 in0.0 mm
10:25 AM 38.1°F3.4°C 20.2°F-6.6°C 48% 10.0 mph W16.1 kmh W 20.0 mph32.2 kmh 30.33 in1027.1 mb 0.00 in0.0 mm 0.00 in0.0 mm 0.00 in0.0 mm
10:29 AM 38.4°F3.6°C 20.9°F-6.2°C 49% 9.0 mph N14.5 kmh N 17.0 mph27.4 kmh 30.34 in1027.4 mb 0.00 in0.0 mm 0.00 in0.0 mm 0.00 in0.0 mm
10:30 AM 38.5°F3.6°C 21.0°F-6.1°C 49% 10.0 mph NW16.1 kmh NW 13.0 mph20.9 kmh 30.34 in1027.4 mb 0.00 in0.0 mm 0.00 in0.0 mm 0.00 in0.0 mm
10:34 AM 38.7°F3.7°C 21.2°F-6.0°C 49% 8.0 mph W12.9 kmh W 12.0 mph19.3 kmh 30.34 in1027.4 mb 0.00 in0.0 mm 0.00 in0.0 mm 0.00 in0.0 mm
10:35 AM 38.7°F3.7°C 20.7°F-6.3°C 48% 7.0 mph N11.3 kmh N 12.0 mph19.3 kmh 30.34 in1027.4 mb 0.00 in0.0 mm 0.00 in0.0 mm 0.00 in0.0 mm
10:39 AM 38.7°F3.7°C 20.7°F-6.3°C 48% 13.0 mph NW20.9 kmh NW 19.0 mph30.6 kmh 30.34 in1027.4 mb 0.00 in0.0 mm 0.00 in0.0 mm 0.00 in0.0 mm
10:40 AM 38.7°F3.7°C 20.2°F-6.6°C 47% 9.0 mph N14.5 kmh N 16.0 mph25.7 kmh 30.34 in1027.4 mb 0.00 in0.0 mm 0.00 in0.0 mm 0.00 in0.0 mm
10:44 AM 38.6°F3.7°C 20.1°F-6.6°C 47% 11.0 mph N17.7 kmh N 13.0 mph20.9 kmh 30.34 in1027.4 mb 0.00 in0.0 mm 0.00 in0.0 mm 0.00 in0.0 mm
10:45 AM 38.5°F3.6°C 20.0°F-6.7°C 47% 12.0 mph NNW19.3 kmh NNW 15.0 mph24.1 kmh 30.34 in1027.4 mb 0.00 in0.0 mm 0.00 in0.0 mm 0.00 in0.0 mm
10:49 AM 38.7°F3.7°C 20.7°F-6.3°C 48% 12.0 mph NW19.3 kmh NW 17.0 mph27.4 kmh 30.34 in1027.4 mb 0.00 in0.0 mm 0.00 in0.0 mm 0.00 in0.0 mm
10:50 AM 38.8°F3.8°C 20.8°F-6.2°C 48% 11.0 mph NW17.7 kmh NW 19.0 mph30.6 kmh 30.34 in1027.4 mb 0.00 in0.0 mm 0.00 in0.0 mm 0.00 in0.0 mm
10:54 AM 38.8°F3.8°C 20.3°F-6.5°C 47% 9.0 mph NW14.5 kmh NW 15.0 mph24.1 kmh 30.34 in1027.4 mb 0.00 in0.0 mm 0.00 in0.0 mm 0.00 in0.0 mm
10:55 AM 38.9°F3.8°C 20.9°F-6.2°C 48% 9.0 mph N14.5 kmh N 11.0 mph17.7 kmh 30.34 in1027.4 mb 0.00 in0.0 mm 0.00 in0.0 mm 0.00 in0.0 mm
10:59 AM 39.2°F4.0°C 20.7°F-6.3°C 47% 10.0 mph NW16.1 kmh NW 13.0 mph20.9 kmh 30.34 in1027.4 mb 0.00 in0.0 mm 0.00 in0.0 mm 0.00 in0.0 mm
11:00 AM 39.2°F4.0°C 20.7°F-6.3°C 47% 7.0 mph NNE11.3 kmh NNE 14.0 mph22.5 kmh 30.34 in1027.4 mb 0.00 in0.0 mm 0.00 in0.0 mm 0.00 in0.0 mm
11:04 AM 39.4°F4.1°C 21.4°F-5.9°C 48% 8.0 mph NW12.9 kmh NW 10.0 mph16.1 kmh 30.35 in1027.8 mb 0.00 in0.0 mm 0.00 in0.0 mm 0.00 in0.0 mm
11:05 AM 39.5°F4.2°C 21.0°F-6.1°C 47% 8.0 mph N12.9 kmh N 13.0 mph20.9 kmh 30.35 in1027.8 mb 0.00 in0.0 mm 0.00 in0.0 mm 0.00 in0.0 mm
11:09 AM 39.6°F4.2°C 20.5°F-6.4°C 46% 7.0 mph NNW11.3 kmh NNW 16.0 mph25.7 kmh 30.35 in1027.8 mb 0.00 in0.0 mm 0.00 in0.0 mm 0.00 in0.0 mm
11:10 AM 39.6°F4.2°C 20.5°F-6.4°C 46% 9.0 mph N14.5 kmh N 14.0 mph22.5 kmh 30.34 in1027.4 mb 0.00 in0.0 mm 0.00 in0.0 mm 0.00 in0.0 mm
11:14 AM 39.8°F4.3°C 20.7°F-6.3°C 46% 15.0 mph NNW24.1 kmh NNW 19.0 mph30.6 kmh 30.34 in1027.4 mb 0.00 in0.0 mm 0.00 in0.0 mm 0.00 in0.0 mm
11:15 AM 39.9°F4.4°C 20.8°F-6.2°C 46% 7.0 mph NNW11.3 kmh NNW 16.0 mph25.7 kmh 30.34 in1027.4 mb 0.00 in0.0 mm 0.00 in0.0 mm 0.00 in0.0 mm
11:19 AM 39.9°F4.4°C 20.3°F-6.5°C 45% 12.0 mph N19.3 kmh N 18.0 mph29.0 kmh 30.33 in1027.1 mb 0.00 in0.0 mm 0.00 in0.0 mm 0.00 in0.0 mm
11:20 AM 39.8°F4.3°C 20.7°F-6.3°C 46% 10.0 mph N16.1 kmh N 14.0 mph22.5 kmh 30.33 in1027.1 mb 0.00 in0.0 mm 0.00 in0.0 mm 0.00 in0.0 mm
11:24 AM 39.9°F4.4°C 20.3°F-6.5°C 45% 7.0 mph W11.3 kmh W 11.0 mph17.7 kmh 30.34 in1027.4 mb 0.00 in0.0 mm 0.00 in0.0 mm 0.00 in0.0 mm
11:25 AM 39.9°F4.4°C 20.8°F-6.2°C 46% 6.0 mph NW9.7 kmh NW 10.0 mph16.1 kmh 30.34 in1027.4 mb 0.00 in0.0 mm 0.00 in0.0 mm 0.00 in0.0 mm
11:29 AM 40.3°F4.6°C 21.7°F-5.7°C 47% 9.0 mph WNW14.5 kmh WNW 13.0 mph20.9 kmh 30.34 in1027.4 mb 0.00 in0.0 mm 0.00 in0.0 mm 0.00 in0.0 mm
11:30 AM 40.3°F4.6°C 20.7°F-6.3°C 45% 6.0 mph NW9.7 kmh NW 10.0 mph16.1 kmh 30.34 in1027.4 mb 0.00 in0.0 mm 0.00 in0.0 mm 0.00 in0.0 mm
11:34 AM 40.5°F4.7°C 21.4°F-5.9°C 46% 9.0 mph NW14.5 kmh NW 11.0 mph17.7 kmh 30.34 in1027.4 mb 0.00 in0.0 mm 0.00 in0.0 mm 0.00 in0.0 mm
11:35 AM 40.5°F4.7°C 20.9°F-6.2°C 45% 7.0 mph WNW11.3 kmh WNW 16.0 mph25.7 kmh 30.34 in1027.4 mb 0.00 in0.0 mm 0.00 in0.0 mm 0.00 in0.0 mm
11:39 AM 40.7°F4.8°C 21.0°F-6.1°C 45% 11.0 mph N17.7 kmh N 19.0 mph30.6 kmh 30.33 in1027.1 mb 0.00 in0.0 mm 0.00 in0.0 mm 0.00 in0.0 mm
11:40 AM 40.8°F4.9°C 20.6°F-6.3°C 44% 15.0 mph NW24.1 kmh NW 16.0 mph25.7 kmh 30.33 in1027.1 mb 0.00 in0.0 mm 0.00 in0.0 mm 0.00 in0.0 mm
11:44 AM 40.6°F4.8°C 20.4°F-6.4°C 44% 7.0 mph NW11.3 kmh NW 14.0 mph22.5 kmh 30.33 in1027.1 mb 0.00 in0.0 mm 0.00 in0.0 mm 0.00 in0.0 mm
11:45 AM 40.6°F4.8°C 21.5°F-5.8°C 46% 13.0 mph NW20.9 kmh NW 16.0 mph25.7 kmh 30.33 in1027.1 mb 0.00 in0.0 mm 0.00 in0.0 mm 0.00 in0.0 mm
11:49 AM 40.7°F4.8°C 21.0°F-6.1°C 45% 7.0 mph N11.3 kmh N 11.0 mph17.7 kmh 30.33 in1027.1 mb 0.00 in0.0 mm 0.00 in0.0 mm 0.00 in0.0 mm
11:50 AM 40.7°F4.8°C 21.0°F-6.1°C 45% 3.0 mph N4.8 kmh N 8.0 mph12.9 kmh 30.33 in1027.1 mb 0.00 in0.0 mm 0.00 in0.0 mm 0.00 in0.0 mm
11:54 AM 40.8°F4.9°C 20.1°F-6.6°C 43% 5.0 mph NNW8.0 kmh NNW 14.0 mph22.5 kmh 30.33 in1027.1 mb 0.00 in0.0 mm 0.00 in0.0 mm 0.00 in0.0 mm
11:55 AM 40.8°F4.9°C 20.1°F-6.6°C 43% 6.0 mph NNW9.7 kmh NNW 12.0 mph19.3 kmh 30.33 in1027.1 mb 0.00 in0.0 mm 0.00 in0.0 mm 0.00 in0.0 mm
11:59 AM 40.7°F4.8°C 20.0°F-6.7°C 43% 15.0 mph N24.1 kmh N 15.0 mph24.1 kmh 30.33 in1027.1 mb 0.00 in0.0 mm 0.00 in0.0 mm 0.00 in0.0 mm
12:00 PM 40.7°F4.8°C 20.0°F-6.7°C 43% 8.0 mph N12.9 kmh N 15.0 mph24.1 kmh 30.32 in1026.8 mb 0.00 in0.0 mm 0.00 in0.0 mm 0.00 in0.0 mm
12:04 PM 41.3°F5.2°C 21.1°F-6.1°C 44% 10.0 mph N16.1 kmh N 14.0 mph22.5 kmh 30.32 in1026.8 mb 0.00 in0.0 mm 0.00 in0.0 mm 0.00 in0.0 mm
12:05 PM 41.4°F5.2°C 20.6°F-6.3°C 43% 4.0 mph NW6.4 kmh NW 12.0 mph19.3 kmh 30.32 in1026.8 mb 0.00 in0.0 mm 0.00 in0.0 mm 0.00 in0.0 mm
12:09 PM 41.7°F5.4°C 20.9°F-6.2°C 43% 13.0 mph NW20.9 kmh NW 14.0 mph22.5 kmh 30.32 in1026.8 mb 0.00 in0.0 mm 0.00 in0.0 mm 0.00 in0.0 mm
12:10 PM 41.6°F5.3°C 20.8°F-6.2°C 43% 4.0 mph WNW6.4 kmh WNW 14.0 mph22.5 kmh 30.32 in1026.8 mb 0.00 in0.0 mm 0.00 in0.0 mm 0.00 in0.0 mm
12:14 PM 41.5°F5.3°C 21.2°F-6.0°C 44% 8.0 mph N12.9 kmh N 9.0 mph14.5 kmh 30.32 in1026.8 mb 0.00 in0.0 mm 0.00 in0.0 mm 0.00 in0.0 mm
12:15 PM 41.5°F5.3°C 20.1°F-6.6°C 42% 7.0 mph N11.3 kmh N 16.0 mph25.7 kmh 30.32 in1026.8 mb 0.00 in0.0 mm 0.00 in0.0 mm 0.00 in0.0 mm
12:19 PM 41.9°F5.5°C 21.1°F-6.1°C 43% 13.0 mph NW20.9 kmh NW 15.0 mph24.1 kmh 30.32 in1026.8 mb 0.00 in0.0 mm 0.00 in0.0 mm 0.00 in0.0 mm
12:20 PM 42.0°F5.6°C 20.6°F-6.3°C 42% 9.0 mph W14.5 kmh W 13.0 mph20.9 kmh 30.32 in1026.8 mb 0.00 in0.0 mm 0.00 in0.0 mm 0.00 in0.0 mm
12:24 PM 42.0°F5.6°C 21.1°F-6.1°C 43% 12.0 mph N19.3 kmh N 14.0 mph22.5 kmh 30.31 in1026.4 mb 0.00 in0.0 mm 0.00 in0.0 mm 0.00 in0.0 mm
12:25 PM 42.1°F5.6°C 20.7°F-6.3°C 42% 9.0 mph NW14.5 kmh NW 14.0 mph22.5 kmh 30.32 in1026.8 mb 0.00 in0.0 mm 0.00 in0.0 mm 0.00 in0.0 mm
12:29 PM 42.6°F5.9°C 21.1°F-6.1°C 42% 2.0 mph NNE3.2 kmh NNE 8.0 mph12.9 kmh 30.31 in1026.4 mb 0.00 in0.0 mm 0.00 in0.0 mm 0.00 in0.0 mm
12:30 PM 42.7°F5.9°C 21.2°F-6.0°C 42% 4.0 mph NNE6.4 kmh NNE 5.0 mph8.0 kmh 30.31 in1026.4 mb 0.00 in0.0 mm 0.00 in0.0 mm 0.00 in0.0 mm
12:34 PM 42.9°F6.1°C 20.3°F-6.5°C 40% 4.0 mph N6.4 kmh N 8.0 mph12.9 kmh 30.31 in1026.4 mb 0.00 in0.0 mm 0.00 in0.0 mm 0.00 in0.0 mm
12:35 PM 42.9°F6.1°C 20.3°F-6.5°C 40% 6.0 mph NW9.7 kmh NW 7.0 mph11.3 kmh 30.31 in1026.4 mb 0.00 in0.0 mm 0.00 in0.0 mm 0.00 in0.0 mm
12:39 PM 42.8°F6.0°C 20.8°F-6.2°C 41% 12.0 mph NW19.3 kmh NW 13.0 mph20.9 kmh 30.31 in1026.4 mb 0.00 in0.0 mm 0.00 in0.0 mm 0.00 in0.0 mm
12:40 PM 42.8°F6.0°C 20.8°F-6.2°C 41% 10.0 mph NW16.1 kmh NW 16.0 mph25.7 kmh 30.31 in1026.4 mb 0.00 in0.0 mm 0.00 in0.0 mm 0.00 in0.0 mm
12:44 PM 42.9°F6.1°C 20.3°F-6.5°C 40% 8.0 mph NW12.9 kmh NW 11.0 mph17.7 kmh 30.31 in1026.4 mb 0.00 in0.0 mm 0.00 in0.0 mm 0.00 in0.0 mm
12:45 PM 42.9°F6.1°C 20.3°F-6.5°C 40% 7.0 mph W11.3 kmh W 10.0 mph16.1 kmh 30.31 in1026.4 mb 0.00 in0.0 mm 0.00 in0.0 mm 0.00 in0.0 mm
12:49 PM 42.9°F6.1°C 20.8°F-6.2°C 41% 7.0 mph NW11.3 kmh NW 7.0 mph11.3 kmh 30.31 in1026.4 mb 0.00 in0.0 mm 0.00 in0.0 mm 0.00 in0.0 mm
12:50 PM 43.0°F6.1°C 21.5°F-5.8°C 42% 4.0 mph W6.4 kmh W 7.0 mph11.3 kmh 30.31 in1026.4 mb 0.00 in0.0 mm 0.00 in0.0 mm 0.00 in0.0 mm
12:54 PM 43.4°F6.3°C 21.9°F-5.6°C 42% 9.0 mph W14.5 kmh W 11.0 mph17.7 kmh 30.31 in1026.4 mb 0.00 in0.0 mm 0.00 in0.0 mm 0.00 in0.0 mm
12:55 PM 43.4°F6.3°C 21.9°F-5.6°C 42% 3.0 mph NW4.8 kmh NW 10.0 mph16.1 kmh 30.31 in1026.4 mb 0.00 in0.0 mm 0.00 in0.0 mm 0.00 in0.0 mm
12:59 PM 43.3°F6.3°C 22.3°F-5.4°C 43% 3.0 mph W4.8 kmh W 11.0 mph17.7 kmh 30.31 in1026.4 mb 0.00 in0.0 mm 0.00 in0.0 mm 0.00 in0.0 mm
01:00 PM 43.3°F6.3°C 21.8°F-5.7°C 42% 8.0 mph NW12.9 kmh NW 9.0 mph14.5 kmh 30.31 in1026.4 mb 0.00 in0.0 mm 0.00 in0.0 mm 0.00 in0.0 mm
01:04 PM 43.4°F6.3°C 22.4°F-5.3°C 43% 11.0 mph W17.7 kmh W 11.0 mph17.7 kmh 30.31 in1026.4 mb 0.00 in0.0 mm 0.00 in0.0 mm 0.00 in0.0 mm
01:05 PM 43.5°F6.4°C 22.5°F-5.3°C 43% 10.0 mph NW16.1 kmh NW 12.0 mph19.3 kmh 30.31 in1026.4 mb 0.00 in0.0 mm 0.00 in0.0 mm 0.00 in0.0 mm
01:09 PM 43.2°F6.2°C 21.7°F-5.7°C 42% 1.0 mph WSW1.6 kmh WSW 6.0 mph9.7 kmh 30.31 in1026.4 mb 0.00 in0.0 mm 0.00 in0.0 mm 0.00 in0.0 mm
01:10 PM 43.2°F6.2°C 22.2°F-5.4°C 43% 6.0 mph WSW9.7 kmh WSW 7.0 mph11.3 kmh 30.31 in1026.4 mb 0.00 in0.0 mm 0.00 in0.0 mm 0.00 in0.0 mm
01:14 PM 43.3°F6.3°C 21.8°F-5.7°C 42% 10.0 mph N16.1 kmh N 12.0 mph19.3 kmh 30.31 in1026.4 mb 0.00 in0.0 mm 0.00 in0.0 mm 0.00 in0.0 mm
01:15 PM 43.4°F6.3°C 21.3°F-5.9°C 41% 5.0 mph N8.0 kmh N 10.0 mph16.1 kmh 30.31 in1026.4 mb 0.00 in0.0 mm 0.00 in0.0 mm 0.00 in0.0 mm
01:19 PM 43.7°F6.5°C 22.1°F-5.5°C 42% 4.0 mph NW6.4 kmh NW 7.0 mph11.3 kmh 30.31 in1026.4 mb 0.00 in0.0 mm 0.00 in0.0 mm 0.00 in0.0 mm
01:20 PM 43.9°F6.6°C 22.3°F-5.4°C 42% 2.0 mph W3.2 kmh W 6.0 mph9.7 kmh 30.31 in1026.4 mb 0.00 in0.0 mm 0.00 in0.0 mm 0.00 in0.0 mm
01:24 PM 44.1°F6.7°C 21.3°F-5.9°C 40% 6.0 mph WNW9.7 kmh WNW 8.0 mph12.9 kmh 30.31 in1026.4 mb 0.00 in0.0 mm 0.00 in0.0 mm 0.00 in0.0 mm
01:25 PM 44.2°F6.8°C 22.0°F-5.6°C 41% 5.0 mph NW8.0 kmh NW 10.0 mph16.1 kmh 30.31 in1026.4 mb 0.00 in0.0 mm 0.00 in0.0 mm 0.00 in0.0 mm
01:29 PM 44.4°F6.9°C 21.6°F-5.8°C 40% 3.0 mph NW4.8 kmh NW 10.0 mph16.1 kmh 30.31 in1026.4 mb 0.00 in0.0 mm 0.00 in0.0 mm 0.00 in0.0 mm
01:30 PM 44.4°F6.9°C 21.6°F-5.8°C 40% 10.0 mph NW16.1 kmh NW 10.0 mph16.1 kmh 30.31 in1026.4 mb 0.00 in0.0 mm 0.00 in0.0 mm 0.00 in0.0 mm
01:34 PM 44.5°F6.9°C 21.1°F-6.1°C 39% 8.0 mph NW12.9 kmh NW 13.0 mph20.9 kmh 30.31 in1026.4 mb 0.00 in0.0 mm 0.00 in0.0 mm 0.00 in0.0 mm
01:35 PM 44.4°F6.9°C 21.0°F-6.1°C 39% 7.0 mph N11.3 kmh N 10.0 mph16.1 kmh 30.31 in1026.4 mb 0.00 in0.0 mm 0.00 in0.0 mm 0.00 in0.0 mm
01:39 PM 44.6°F7.0°C 21.8°F-5.7°C 40% 8.0 mph NW12.9 kmh NW 8.0 mph12.9 kmh 30.31 in1026.4 mb 0.00 in0.0 mm 0.00 in0.0 mm 0.00 in0.0 mm
01:40 PM 44.6°F7.0°C 21.8°F-5.7°C 40% 8.0 mph SW12.9 kmh SW 12.0 mph19.3 kmh 30.31 in1026.4 mb 0.00 in0.0 mm 0.00 in0.0 mm 0.00 in0.0 mm
01:44 PM 44.5°F6.9°C 22.3°F-5.4°C 41% 2.0 mph WSW3.2 kmh WSW 6.0 mph9.7 kmh 30.31 in1026.4 mb 0.00 in0.0 mm 0.00 in0.0 mm 0.00 in0.0 mm
01:45 PM 44.6°F7.0°C 21.8°F-5.7°C 40% 2.0 mph SSW3.2 kmh SSW 2.0 mph3.2 kmh 30.31 in1026.4 mb 0.00 in0.0 mm 0.00 in0.0 mm 0.00 in0.0 mm
01:49 PM 44.9°F7.2°C 21.5°F-5.8°C 39% 1.0 mph SSE1.6 kmh SSE 4.0 mph6.4 kmh 30.31 in1026.4 mb 0.00 in0.0 mm 0.00 in0.0 mm 0.00 in0.0 mm
01:50 PM 45.2°F7.3°C 22.9°F-5.1°C 41% 2.0 mph SSE3.2 kmh SSE 3.0 mph4.8 kmh 30.30 in1026.1 mb 0.00 in0.0 mm 0.00 in0.0 mm 0.00 in0.0 mm
01:54 PM 45.9°F7.7°C 22.4°F-5.3°C 39% 4.0 mph NNW6.4 kmh NNW 6.0 mph9.7 kmh 30.30 in1026.1 mb 0.00 in0.0 mm 0.00 in0.0 mm 0.00 in0.0 mm
01:55 PM 45.9°F7.7°C 22.4°F-5.3°C 39% 5.0 mph W8.0 kmh W 6.0 mph9.7 kmh 30.30 in1026.1 mb 0.00 in0.0 mm 0.00 in0.0 mm 0.00 in0.0 mm
01:59 PM 46.1°F7.8°C 22.5°F-5.3°C 39% 5.0 mph N8.0 kmh N 10.0 mph16.1 kmh 30.30 in1026.1 mb 0.00 in0.0 mm 0.00 in0.0 mm 0.00 in0.0 mm
02:00 PM 46.0°F7.8°C 21.8°F-5.7°C 38% Calm Calm 8.0 mph12.9 kmh 30.30 in1026.1 mb 0.00 in0.0 mm 0.00 in0.0 mm 0.00 in0.0 mm
02:04 PM 45.8°F7.7°C 20.4°F-6.4°C 36% 15.0 mph N24.1 kmh N 16.0 mph25.7 kmh 30.30 in1026.1 mb 0.00 in0.0 mm 0.00 in0.0 mm 0.00 in0.0 mm
02:05 PM 45.8°F7.7°C 21.0°F-6.1°C 37% 12.0 mph N19.3 kmh N 16.0 mph25.7 kmh 30.30 in1026.1 mb 0.00 in0.0 mm 0.00 in0.0 mm 0.00 in0.0 mm
02:09 PM 45.5°F7.5°C 20.1°F-6.6°C 36% 8.0 mph NNW12.9 kmh NNW 11.0 mph17.7 kmh 30.30 in1026.1 mb 0.00 in0.0 mm 0.00 in0.0 mm 0.00 in0.0 mm
02:10 PM 45.4°F7.4°C 20.7°F-6.3°C 37% 1.0 mph N1.6 kmh N 10.0 mph16.1 kmh 30.30 in1026.1 mb 0.00 in0.0 mm 0.00 in0.0 mm 0.00 in0.0 mm
02:14 PM 45.7°F7.6°C 20.9°F-6.2°C 37% 5.0 mph NW8.0 kmh NW 12.0 mph19.3 kmh 30.30 in1026.1 mb 0.00 in0.0 mm 0.00 in0.0 mm 0.00 in0.0 mm
02:15 PM 45.8°F7.7°C 22.3°F-5.4°C 39% 3.0 mph WNW4.8 kmh WNW 6.0 mph9.7 kmh 30.29 in1025.7 mb 0.00 in0.0 mm 0.00 in0.0 mm 0.00 in0.0 mm
02:19 PM 46.2°F7.9°C 22.6°F-5.2°C 39% 8.0 mph WNW12.9 kmh WNW 10.0 mph16.1 kmh 30.30 in1026.1 mb 0.00 in0.0 mm 0.00 in0.0 mm 0.00 in0.0 mm
02:20 PM 46.2°F7.9°C 22.0°F-5.6°C 38% 3.0 mph WNW4.8 kmh WNW 10.0 mph16.1 kmh 30.30 in1026.1 mb 0.00 in0.0 mm 0.00 in0.0 mm 0.00 in0.0 mm
02:24 PM 46.4°F8.0°C 23.4°F-4.8°C 40% 4.0 mph NW6.4 kmh NW 5.0 mph8.0 kmh 30.29 in1025.7 mb 0.00 in0.0 mm 0.00 in0.0 mm 0.00 in0.0 mm
02:25 PM 46.6°F8.1°C 22.4°F-5.3°C 38% 7.0 mph NW11.3 kmh NW 7.0 mph11.3 kmh 30.29 in1025.7 mb 0.00 in0.0 mm 0.00 in0.0 mm 0.00 in0.0 mm
02:29 PM 46.8°F8.2°C 21.3°F-5.9°C 36% 1.0 mph W1.6 kmh W 8.0 mph12.9 kmh 30.29 in1025.7 mb 0.00 in0.0 mm 0.00 in0.0 mm 0.00 in0.0 mm
02:30 PM 46.8°F8.2°C 21.9°F-5.6°C 37% 4.0 mph WSW6.4 kmh WSW 5.0 mph8.0 kmh 30.29 in1025.7 mb 0.00 in0.0 mm 0.00 in0.0 mm 0.00 in0.0 mm
02:34 PM 47.1°F8.4°C 21.5°F-5.8°C 36% 11.0 mph NW17.7 kmh NW 11.0 mph17.7 kmh 30.29 in1025.7 mb 0.00 in0.0 mm 0.00 in0.0 mm 0.00 in0.0 mm
02:35 PM 47.1°F8.4°C 21.5°F-5.8°C 36% 3.0 mph W4.8 kmh W 12.0 mph19.3 kmh 30.29 in1025.7 mb 0.00 in0.0 mm 0.00 in0.0 mm 0.00 in0.0 mm
02:39 PM 47.3°F8.5°C 21.7°F-5.7°C 36% 4.0 mph WNW6.4 kmh WNW 6.0 mph9.7 kmh 30.29 in1025.7 mb 0.00 in0.0 mm 0.00 in0.0 mm 0.00 in0.0 mm
02:40 PM 47.4°F8.6°C 22.5°F-5.3°C 37% 5.0 mph N8.0 kmh N 5.0 mph8.0 kmh 30.29 in1025.7 mb 0.00 in0.0 mm 0.00 in0.0 mm 0.00 in0.0 mm
02:44 PM 47.3°F8.5°C 20.4°F-6.4°C 34% 8.0 mph N12.9 kmh N 8.0 mph12.9 kmh 30.28 in1025.4 mb 0.00 in0.0 mm 0.00 in0.0 mm 0.00 in0.0 mm
02:45 PM 47.2°F8.4°C 21.0°F-6.1°C 35% 4.0 mph NNW6.4 kmh NNW 11.0 mph17.7 kmh 30.28 in1025.4 mb 0.00 in0.0 mm 0.00 in0.0 mm 0.00 in0.0 mm
02:49 PM 47.2°F8.4°C 22.9°F-5.1°C 38% 10.0 mph NW16.1 kmh NW 10.0 mph16.1 kmh 30.29 in1025.7 mb 0.00 in0.0 mm 0.00 in0.0 mm 0.00 in0.0 mm
02:50 PM 47.3°F8.5°C 23.0°F-5.0°C 38% 2.0 mph W3.2 kmh W 10.0 mph16.1 kmh 30.29 in1025.7 mb 0.00 in0.0 mm 0.00 in0.0 mm 0.00 in0.0 mm
02:54 PM 47.7°F8.7°C 22.1°F-5.5°C 36% Calm Calm 4.0 mph6.4 kmh 30.28 in1025.4 mb 0.00 in0.0 mm 0.00 in0.0 mm 0.00 in0.0 mm
02:55 PM 47.9°F8.8°C 23.5°F-4.7°C 38% 1.0 mph W1.6 kmh W 5.0 mph8.0 kmh 30.28 in1025.4 mb 0.00 in0.0 mm 0.00 in0.0 mm 0.00 in0.0 mm
02:59 PM 47.9°F8.8°C 20.9°F-6.2°C 34% 9.0 mph N14.5 kmh N 11.0 mph17.7 kmh 30.28 in1025.4 mb 0.00 in0.0 mm 0.00 in0.0 mm 0.00 in0.0 mm
03:00 PM 47.8°F8.8°C 21.5°F-5.8°C 35% 6.0 mph N9.7 kmh N 10.0 mph16.1 kmh 30.28 in1025.4 mb 0.00 in0.0 mm 0.00 in0.0 mm 0.00 in0.0 mm
03:04 PM 47.6°F8.7°C 21.3°F-5.9°C 35% 2.0 mph W3.2 kmh W 9.0 mph14.5 kmh 30.28 in1025.4 mb 0.00 in0.0 mm 0.00 in0.0 mm 0.00 in0.0 mm
03:05 PM 47.6°F8.7°C 22.0°F-5.6°C 36% 11.0 mph W17.7 kmh W 12.0 mph19.3 kmh 30.28 in1025.4 mb 0.00 in0.0 mm 0.00 in0.0 mm 0.00 in0.0 mm
03:09 PM 47.4°F8.6°C 20.5°F-6.4°C 34% Calm Calm 3.0 mph4.8 kmh 30.28 in1025.4 mb 0.00 in0.0 mm 0.00 in0.0 mm 0.00 in0.0 mm
03:10 PM 47.4°F8.6°C 21.1°F-6.1°C 35% 2.0 mph W3.2 kmh W 4.0 mph6.4 kmh 30.28 in1025.4 mb 0.00 in0.0 mm 0.00 in0.0 mm 0.00 in0.0 mm
03:14 PM 47.7°F8.7°C 21.4°F-5.9°C 35% 7.0 mph WNW11.3 kmh WNW 8.0 mph12.9 kmh 30.28 in1025.4 mb 0.00 in0.0 mm 0.00 in0.0 mm 0.00 in0.0 mm
03:15 PM 47.8°F8.8°C 21.5°F-5.8°C 35% 3.0 mph NW4.8 kmh NW 8.0 mph12.9 kmh 30.28 in1025.4 mb 0.00 in0.0 mm 0.00 in0.0 mm 0.00 in0.0 mm
03:19 PM 47.9°F8.8°C 22.3°F-5.4°C 36% 7.0 mph N11.3 kmh N 9.0 mph14.5 kmh 30.28 in1025.4 mb 0.00 in0.0 mm 0.00 in0.0 mm 0.00 in0.0 mm
03:20 PM 47.9°F8.8°C 21.6°F-5.8°C 35% 5.0 mph NNW8.0 kmh NNW 9.0 mph14.5 kmh 30.28 in1025.4 mb 0.00 in0.0 mm 0.00 in0.0 mm 0.00 in0.0 mm
03:24 PM 48.3°F9.1°C 21.9°F-5.6°C 35% 1.0 mph W1.6 kmh W 4.0 mph6.4 kmh 30.28 in1025.4 mb 0.00 in0.0 mm 0.00 in0.0 mm 0.00 in0.0 mm
03:25 PM 48.4°F9.1°C 22.7°F-5.2°C 36% 6.0 mph NW9.7 kmh NW 6.0 mph9.7 kmh 30.28 in1025.4 mb 0.00 in0.0 mm 0.00 in0.0 mm 0.00 in0.0 mm
03:29 PM 48.7°F9.3°C 22.3°F-5.4°C 35% 3.0 mph NW4.8 kmh NW 6.0 mph9.7 kmh 30.28 in1025.4 mb 0.00 in0.0 mm 0.00 in0.0 mm 0.00 in0.0 mm
03:30 PM 48.8°F9.3°C 22.4°F-5.3°C 35% 8.0 mph N12.9 kmh N 9.0 mph14.5 kmh 30.28 in1025.4 mb 0.00 in0.0 mm 0.00 in0.0 mm 0.00 in0.0 mm
03:34 PM 48.9°F9.4°C 23.1°F-4.9°C 36% 10.0 mph NW16.1 kmh NW 10.0 mph16.1 kmh 30.28 in1025.4 mb 0.00 in0.0 mm 0.00 in0.0 mm 0.00 in0.0 mm
03:35 PM 48.9°F9.4°C 21.1°F-6.1°C 33% 8.0 mph NNW12.9 kmh NNW 12.0 mph19.3 kmh 30.28 in1025.4 mb 0.00 in0.0 mm 0.00 in0.0 mm 0.00 in0.0 mm
03:39 PM 48.3°F9.1°C 21.3°F-5.9°C 34% Calm Calm 6.0 mph9.7 kmh 30.28 in1025.4 mb 0.00 in0.0 mm 0.00 in0.0 mm 0.00 in0.0 mm
03:40 PM 48.3°F9.1°C 21.3°F-5.9°C 34% 7.0 mph WSW11.3 kmh WSW 7.0 mph11.3 kmh 30.28 in1025.4 mb 0.00 in0.0 mm 0.00 in0.0 mm 0.00 in0.0 mm
03:44 PM 48.3°F9.1°C 21.9°F-5.6°C 35% 1.0 mph WNW1.6 kmh WNW 6.0 mph9.7 kmh 30.28 in1025.4 mb 0.00 in0.0 mm 0.00 in0.0 mm 0.00 in0.0 mm
03:45 PM 48.3°F9.1°C 21.9°F-5.6°C 35% 5.0 mph WNW8.0 kmh WNW 5.0 mph8.0 kmh 30.28 in1025.4 mb 0.00 in0.0 mm 0.00 in0.0 mm 0.00 in0.0 mm
03:49 PM 48.3°F9.1°C 21.9°F-5.6°C 35% 2.0 mph NE3.2 kmh NE 8.0 mph12.9 kmh 30.28 in1025.4 mb 0.00 in0.0 mm 0.00 in0.0 mm 0.00 in0.0 mm
03:50 PM 48.4°F9.1°C 22.0°F-5.6°C 35% 2.0 mph NNE3.2 kmh NNE 4.0 mph6.4 kmh 30.28 in1025.4 mb 0.00 in0.0 mm 0.00 in0.0 mm 0.00 in0.0 mm
03:54 PM 48.7°F9.3°C 21.6°F-5.8°C 34% 5.0 mph N8.0 kmh N 7.0 mph11.3 kmh 30.27 in1025.1 mb 0.00 in0.0 mm 0.00 in0.0 mm 0.00 in0.0 mm
03:55 PM 48.7°F9.3°C 21.6°F-5.8°C 34% 2.0 mph N3.2 kmh N 6.0 mph9.7 kmh 30.28 in1025.4 mb 0.00 in0.0 mm 0.00 in0.0 mm 0.00 in0.0 mm
03:59 PM 48.7°F9.3°C 20.9°F-6.2°C 33% 5.0 mph NW8.0 kmh NW 6.0 mph9.7 kmh 30.28 in1025.4 mb 0.00 in0.0 mm 0.00 in0.0 mm 0.00 in0.0 mm
04:00 PM 48.6°F9.2°C 21.5°F-5.8°C 34% 3.0 mph WSW4.8 kmh WSW 7.0 mph11.3 kmh 30.28 in1025.4 mb 0.00 in0.0 mm 0.00 in0.0 mm 0.00 in0.0 mm
04:04 PM 48.8°F9.3°C 22.4°F-5.3°C 35% 5.0 mph NW8.0 kmh NW 5.0 mph8.0 kmh 30.28 in1025.4 mb 0.00 in0.0 mm 0.00 in0.0 mm 0.00 in0.0 mm
04:05 PM 48.8°F9.3°C 21.7°F-5.7°C 34% 3.0 mph WNW4.8 kmh WNW 5.0 mph8.0 kmh 30.28 in1025.4 mb 0.00 in0.0 mm 0.00 in0.0 mm 0.00 in0.0 mm
04:09 PM 49.0°F9.4°C 21.2°F-6.0°C 33% 2.0 mph N3.2 kmh N 7.0 mph11.3 kmh 30.27 in1025.1 mb 0.00 in0.0 mm 0.00 in0.0 mm 0.00 in0.0 mm
04:10 PM 49.1°F9.5°C 22.0°F-5.6°C 34% Calm Calm 4.0 mph6.4 kmh 30.27 in1025.1 mb 0.00 in0.0 mm 0.00 in0.0 mm 0.00 in0.0 mm
04:14 PM 49.2°F9.6°C 20.6°F-6.3°C 32% 4.0 mph SW6.4 kmh SW 5.0 mph8.0 kmh 30.27 in1025.1 mb 0.00 in0.0 mm 0.00 in0.0 mm 0.00 in0.0 mm
04:15 PM 49.2°F9.6°C 21.3°F-5.9°C 33% 3.0 mph W4.8 kmh W 7.0 mph11.3 kmh 30.27 in1025.1 mb 0.00 in0.0 mm 0.00 in0.0 mm 0.00 in0.0 mm
04:19 PM 49.1°F9.5°C 22.0°F-5.6°C 34% 6.0 mph W9.7 kmh W 8.0 mph12.9 kmh 30.27 in1025.1 mb 0.00 in0.0 mm 0.00 in0.0 mm 0.00 in0.0 mm
04:20 PM 49.2°F9.6°C 22.1°F-5.5°C 34% 6.0 mph NNW9.7 kmh NNW 9.0 mph14.5 kmh 30.27 in1025.1 mb 0.00 in0.0 mm 0.00 in0.0 mm 0.00 in0.0 mm
04:24 PM 49.6°F9.8°C 21.0°F-6.1°C 32% 8.0 mph NNW12.9 kmh NNW 10.0 mph16.1 kmh 30.27 in1025.1 mb 0.00 in0.0 mm 0.00 in0.0 mm 0.00 in0.0 mm
04:25 PM 49.6°F9.8°C 21.0°F-6.1°C 32% 6.0 mph NW9.7 kmh NW 10.0 mph16.1 kmh 30.27 in1025.1 mb 0.00 in0.0 mm 0.00 in0.0 mm 0.00 in0.0 mm
04:29 PM 49.2°F9.6°C 21.3°F-5.9°C 33% Calm Calm 4.0 mph6.4 kmh 30.27 in1025.1 mb 0.00 in0.0 mm 0.00 in0.0 mm 0.00 in0.0 mm
04:30 PM 49.2°F9.6°C 21.3°F-5.9°C 33% 2.0 mph WNW3.2 kmh WNW 3.0 mph4.8 kmh 30.27 in1025.1 mb 0.00 in0.0 mm 0.00 in0.0 mm 0.00 in0.0 mm
04:34 PM 49.3°F9.6°C 21.4°F-5.9°C 33% 5.0 mph NW8.0 kmh NW 9.0 mph14.5 kmh 30.27 in1025.1 mb 0.00 in0.0 mm 0.00 in0.0 mm 0.00 in0.0 mm
04:35 PM 49.3°F9.6°C 21.4°F-5.9°C 33% 6.0 mph W9.7 kmh W 8.0 mph12.9 kmh 30.27 in1025.1 mb 0.00 in0.0 mm 0.00 in0.0 mm 0.00 in0.0 mm
04:39 PM 49.5°F9.7°C 22.3°F-5.4°C 34% 2.0 mph N3.2 kmh N 8.0 mph12.9 kmh 30.27 in1025.1 mb 0.00 in0.0 mm 0.00 in0.0 mm 0.00 in0.0 mm
04:40 PM 49.6°F9.8°C 23.1°F-4.9°C 35% 4.0 mph N6.4 kmh N 5.0 mph8.0 kmh 30.27 in1025.1 mb 0.00 in0.0 mm 0.00 in0.0 mm 0.00 in0.0 mm
04:44 PM 49.8°F9.9°C 21.9°F-5.6°C 33% 4.0 mph NNE6.4 kmh NNE 7.0 mph11.3 kmh 30.26 in1024.7 mb 0.00 in0.0 mm 0.00 in0.0 mm 0.00 in0.0 mm
04:45 PM 49.8°F9.9°C 21.9°F-5.6°C 33% 10.0 mph N16.1 kmh N 10.0 mph16.1 kmh 30.26 in1024.7 mb 0.00 in0.0 mm 0.00 in0.0 mm 0.00 in0.0 mm
04:49 PM 49.8°F9.9°C 21.9°F-5.6°C 33% 3.0 mph N4.8 kmh N 8.0 mph12.9 kmh 30.27 in1025.1 mb 0.00 in0.0 mm 0.00 in0.0 mm 0.00 in0.0 mm
04:50 PM 49.7°F9.8°C 21.8°F-5.7°C 33% 7.0 mph N11.3 kmh N 7.0 mph11.3 kmh 30.27 in1025.1 mb 0.00 in0.0 mm 0.00 in0.0 mm 0.00 in0.0 mm
04:54 PM 49.6°F9.8°C 21.7°F-5.7°C 33% 4.0 mph N6.4 kmh N 7.0 mph11.3 kmh 30.26 in1024.7 mb 0.00 in0.0 mm 0.00 in0.0 mm 0.00 in0.0 mm
04:55 PM 49.7°F9.8°C 21.8°F-5.7°C 33% 4.0 mph NNE6.4 kmh NNE 7.0 mph11.3 kmh 30.26 in1024.7 mb 0.00 in0.0 mm 0.00 in0.0 mm 0.00 in0.0 mm
04:59 PM 49.6°F9.8°C 21.7°F-5.7°C 33% 5.0 mph N8.0 kmh N 5.0 mph8.0 kmh 30.26 in1024.7 mb 0.00 in0.0 mm 0.00 in0.0 mm 0.00 in0.0 mm
05:00 PM 49.7°F9.8°C 21.8°F-5.7°C 33% 4.0 mph N6.4 kmh N 8.0 mph12.9 kmh 30.26 in1024.7 mb 0.00 in0.0 mm 0.00 in0.0 mm 0.00 in0.0 mm
05:04 PM 49.9°F9.9°C 22.0°F-5.6°C 33% 5.0 mph NNE8.0 kmh NNE 6.0 mph9.7 kmh 30.27 in1025.1 mb 0.00 in0.0 mm 0.00 in0.0 mm 0.00 in0.0 mm
05:05 PM 49.8°F9.9°C 21.2°F-6.0°C 32% Calm Calm 6.0 mph9.7 kmh 30.27 in1025.1 mb 0.00 in0.0 mm 0.00 in0.0 mm 0.00 in0.0 mm
05:09 PM 50.0°F10.0°C 22.1°F-5.5°C 33% 2.0 mph N3.2 kmh N 5.0 mph8.0 kmh 30.26 in1024.7 mb 0.00 in0.0 mm 0.00 in0.0 mm 0.00 in0.0 mm
05:10 PM 50.0°F10.0°C 22.1°F-5.5°C 33% 5.0 mph NNW8.0 kmh NNW 5.0 mph8.0 kmh 30.26 in1024.7 mb 0.00 in0.0 mm 0.00 in0.0 mm 0.00 in0.0 mm
05:14 PM 50.1°F10.1°C 21.4°F-5.9°C 32% Calm Calm 4.0 mph6.4 kmh 30.26 in1024.7 mb 0.00 in0.0 mm 0.00 in0.0 mm 0.00 in0.0 mm
05:15 PM 50.2°F10.1°C 22.2°F-5.4°C 33% Calm Calm -- 30.26 in1024.7 mb 0.00 in0.0 mm 0.00 in0.0 mm 0.00 in0.0 mm
05:19 PM 50.8°F10.4°C 22.8°F-5.1°C 33% 2.0 mph W3.2 kmh W 6.0 mph9.7 kmh 30.26 in1024.7 mb 0.00 in0.0 mm 0.00 in0.0 mm 0.00 in0.0 mm
05:20 PM 50.9°F10.5°C 22.1°F-5.5°C 32% 3.0 mph NW4.8 kmh NW 5.0 mph8.0 kmh 30.26 in1024.7 mb 0.00 in0.0 mm 0.00 in0.0 mm 0.00 in0.0 mm
05:24 PM 50.7°F10.4°C 21.2°F-6.0°C 31% 6.0 mph NW9.7 kmh NW 10.0 mph16.1 kmh 30.26 in1024.7 mb 0.00 in0.0 mm 0.00 in0.0 mm 0.00 in0.0 mm
05:25 PM 50.6°F10.3°C 21.1°F-6.1°C 31% 3.0 mph WNW4.8 kmh WNW 8.0 mph12.9 kmh 30.26 in1024.7 mb 0.00 in0.0 mm 0.00 in0.0 mm 0.00 in0.0 mm
05:29 PM 50.5°F10.3°C 21.0°F-6.1°C 31% 6.0 mph W9.7 kmh W 7.0 mph11.3 kmh 30.27 in1025.1 mb 0.00 in0.0 mm 0.00 in0.0 mm 0.00 in0.0 mm
05:30 PM 50.4°F10.2°C 20.2°F-6.6°C 30% 4.0 mph W6.4 kmh W 7.0 mph11.3 kmh 30.27 in1025.1 mb 0.00 in0.0 mm 0.00 in0.0 mm 0.00 in0.0 mm
05:34 PM 50.1°F10.1°C 19.9°F-6.7°C 30% 3.0 mph W4.8 kmh W 5.0 mph8.0 kmh 30.26 in1024.7 mb 0.00 in0.0 mm 0.00 in0.0 mm 0.00 in0.0 mm
05:35 PM 50.0°F10.0°C 19.8°F-6.8°C 30% 1.0 mph W1.6 kmh W 3.0 mph4.8 kmh 30.27 in1025.1 mb 0.00 in0.0 mm 0.00 in0.0 mm 0.00 in0.0 mm
05:39 PM 49.9°F9.9°C 21.2°F-6.0°C 32% 3.0 mph NNW4.8 kmh NNW 7.0 mph11.3 kmh 30.27 in1025.1 mb 0.00 in0.0 mm 0.00 in0.0 mm 0.00 in0.0 mm
05:40 PM 49.9°F9.9°C 22.0°F-5.6°C 33% Calm Calm 5.0 mph8.0 kmh 30.27 in1025.1 mb 0.00 in0.0 mm 0.00 in0.0 mm 0.00 in0.0 mm
05:44 PM 50.1°F10.1°C 21.4°F-5.9°C 32% 3.0 mph N4.8 kmh N 6.0 mph9.7 kmh 30.27 in1025.1 mb 0.00 in0.0 mm 0.00 in0.0 mm 0.00 in0.0 mm
05:45 PM 50.1°F10.1°C 21.4°F-5.9°C 32% Calm Calm 5.0 mph8.0 kmh 30.27 in1025.1 mb 0.00 in0.0 mm 0.00 in0.0 mm 0.00 in0.0 mm
05:49 PM 50.1°F10.1°C 20.7°F-6.3°C 31% Calm Calm -- 30.27 in1025.1 mb 0.00 in0.0 mm 0.00 in0.0 mm 0.00 in0.0 mm
05:50 PM 50.1°F10.1°C 20.7°F-6.3°C 31% Calm Calm -- 30.27 in1025.1 mb 0.00 in0.0 mm 0.00 in0.0 mm 0.00 in0.0 mm
05:54 PM 50.4°F10.2°C 21.7°F-5.7°C 32% Calm Calm -- 30.27 in1025.1 mb 0.00 in0.0 mm 0.00 in0.0 mm 0.00 in0.0 mm
05:55 PM 50.5°F10.3°C 21.8°F-5.7°C 32% 4.0 mph NNW6.4 kmh NNW 6.0 mph9.7 kmh 30.27 in1025.1 mb 0.00 in0.0 mm 0.00 in0.0 mm 0.00 in0.0 mm
05:59 PM 50.7°F10.4°C 21.2°F-6.0°C 31% 1.0 mph NE1.6 kmh NE 2.0 mph3.2 kmh 30.27 in1025.1 mb 0.00 in0.0 mm 0.00 in0.0 mm 0.00 in0.0 mm
06:00 PM 50.7°F10.4°C 21.2°F-6.0°C 31% Calm Calm 2.0 mph3.2 kmh 30.27 in1025.1 mb 0.00 in0.0 mm 0.00 in0.0 mm 0.00 in0.0 mm
06:04 PM 50.9°F10.5°C 22.1°F-5.5°C 32% 1.0 mph NE1.6 kmh NE 1.0 mph1.6 kmh 30.27 in1025.1 mb 0.00 in0.0 mm 0.00 in0.0 mm 0.00 in0.0 mm
06:05 PM 50.8°F10.4°C 21.3°F-5.9°C 31% Calm Calm 1.0 mph1.6 kmh 30.27 in1025.1 mb 0.00 in0.0 mm 0.00 in0.0 mm 0.00 in0.0 mm
06:09 PM 50.8°F10.4°C 21.3°F-5.9°C 31% 1.0 mph N1.6 kmh N 3.0 mph4.8 kmh 30.27 in1025.1 mb 0.00 in0.0 mm 0.00 in0.0 mm 0.00 in0.0 mm
06:10 PM 50.7°F10.4°C 21.9°F-5.6°C 32% 3.0 mph N4.8 kmh N 4.0 mph6.4 kmh 30.27 in1025.1 mb 0.00 in0.0 mm 0.00 in0.0 mm 0.00 in0.0 mm
06:14 PM 50.6°F10.3°C 21.1°F-6.1°C 31% Calm Calm -- 30.27 in1025.1 mb 0.00 in0.0 mm 0.00 in0.0 mm 0.00 in0.0 mm
06:15 PM 50.7°F10.4°C 21.2°F-6.0°C 31% 1.0 mph N1.6 kmh N 1.0 mph1.6 kmh 30.27 in1025.1 mb 0.00 in0.0 mm 0.00 in0.0 mm 0.00 in0.0 mm
06:19 PM 50.7°F10.4°C 22.7°F-5.2°C 33% 1.0 mph N1.6 kmh N 2.0 mph3.2 kmh 30.27 in1025.1 mb 0.00 in0.0 mm 0.00 in0.0 mm 0.00 in0.0 mm
06:20 PM 50.6°F10.3°C 21.9°F-5.6°C 32% Calm Calm 2.0 mph3.2 kmh 30.27 in1025.1 mb 0.00 in0.0 mm 0.00 in0.0 mm 0.00 in0.0 mm
06:24 PM 50.4°F10.2°C 21.7°F-5.7°C 32% Calm Calm 3.0 mph4.8 kmh 30.27 in1025.1 mb 0.00 in0.0 mm 0.00 in0.0 mm 0.00 in0.0 mm
06:25 PM 50.4°F10.2°C 21.7°F-5.7°C 32% Calm Calm 3.0 mph4.8 kmh 30.27 in1025.1 mb 0.00 in0.0 mm 0.00 in0.0 mm 0.00 in0.0 mm
06:29 PM 50.3°F10.2°C 21.6°F-5.8°C 32% 1.0 mph NE1.6 kmh NE 3.0 mph4.8 kmh 30.27 in1025.1 mb 0.00 in0.0 mm 0.00 in0.0 mm 0.00 in0.0 mm
06:30 PM 50.3°F10.2°C 21.6°F-5.8°C 32% 1.0 mph NE1.6 kmh NE 2.0 mph3.2 kmh 30.27 in1025.1 mb 0.00 in0.0 mm 0.00 in0.0 mm 0.00 in0.0 mm
06:34 PM 49.9°F9.9°C 21.2°F-6.0°C 32% Calm Calm 1.0 mph1.6 kmh 30.27 in1025.1 mb 0.00 in0.0 mm 0.00 in0.0 mm 0.00 in0.0 mm
06:35 PM 49.9°F9.9°C 21.2°F-6.0°C 32% Calm Calm -- 30.27 in1025.1 mb 0.00 in0.0 mm 0.00 in0.0 mm 0.00 in0.0 mm
06:39 PM 49.8°F9.9°C 21.2°F-6.0°C 32% Calm Calm -- 30.27 in1025.1 mb 0.00 in0.0 mm 0.00 in0.0 mm 0.00 in0.0 mm
06:40 PM 49.9°F9.9°C 21.2°F-6.0°C 32% Calm Calm -- 30.27 in1025.1 mb 0.00 in0.0 mm 0.00 in0.0 mm 0.00 in0.0 mm
06:44 PM 49.9°F9.9°C 21.2°F-6.0°C 32% Calm Calm -- 30.27 in1025.1 mb 0.00 in0.0 mm 0.00 in0.0 mm 0.00 in0.0 mm
06:45 PM 49.9°F9.9°C 21.2°F-6.0°C 32% Calm Calm -- 30.27 in1025.1 mb 0.00 in0.0 mm 0.00 in0.0 mm 0.00 in0.0 mm
06:49 PM 50.0°F10.0°C 22.1°F-5.5°C 33% 1.0 mph ENE1.6 kmh ENE 2.0 mph3.2 kmh 30.27 in1025.1 mb 0.00 in0.0 mm 0.00 in0.0 mm 0.00 in0.0 mm
06:50 PM 50.0°F10.0°C 22.1°F-5.5°C 33% Calm Calm 2.0 mph3.2 kmh 30.27 in1025.1 mb 0.00 in0.0 mm 0.00 in0.0 mm 0.00 in0.0 mm
06:54 PM 49.9°F9.9°C 21.2°F-6.0°C 32% Calm Calm -- 30.28 in1025.4 mb 0.00 in0.0 mm 0.00 in0.0 mm 0.00 in0.0 mm
06:55 PM 49.9°F9.9°C 21.2°F-6.0°C 32% Calm Calm -- 30.27 in1025.1 mb 0.00 in0.0 mm 0.00 in0.0 mm 0.00 in0.0 mm
06:59 PM 49.8°F9.9°C 21.2°F-6.0°C 32% Calm Calm -- 30.27 in1025.1 mb 0.00 in0.0 mm 0.00 in0.0 mm 0.00 in0.0 mm
07:00 PM 49.8°F9.9°C 21.9°F-5.6°C 33% Calm Calm -- 30.28 in1025.4 mb 0.00 in0.0 mm 0.00 in0.0 mm 0.00 in0.0 mm
07:04 PM 49.7°F9.8°C 21.8°F-5.7°C 33% Calm Calm -- 30.28 in1025.4 mb 0.00 in0.0 mm 0.00 in0.0 mm 0.00 in0.0 mm
07:05 PM 49.6°F9.8°C 21.7°F-5.7°C 33% Calm Calm -- 30.28 in1025.4 mb 0.00 in0.0 mm 0.00 in0.0 mm 0.00 in0.0 mm
07:09 PM 49.5°F9.7°C 21.6°F-5.8°C 33% Calm Calm -- 30.28 in1025.4 mb 0.00 in0.0 mm 0.00 in0.0 mm 0.00 in0.0 mm
07:10 PM 49.4°F9.7°C 20.8°F-6.2°C 32% Calm Calm -- 30.28 in1025.4 mb 0.00 in0.0 mm 0.00 in0.0 mm 0.00 in0.0 mm
07:14 PM 49.2°F9.6°C 22.1°F-5.5°C 34% Calm Calm -- 30.28 in1025.4 mb 0.00 in0.0 mm 0.00 in0.0 mm 0.00 in0.0 mm
07:15 PM 49.2°F9.6°C 22.1°F-5.5°C 34% Calm Calm -- 30.28 in1025.4 mb 0.00 in0.0 mm 0.00 in0.0 mm 0.00 in0.0 mm
07:19 PM 48.9°F9.4°C 22.5°F-5.3°C 35% Calm Calm -- 30.28 in1025.4 mb 0.00 in0.0 mm 0.00 in0.0 mm 0.00 in0.0 mm
07:20 PM 48.8°F9.3°C 21.7°F-5.7°C 34% Calm Calm -- 30.28 in1025.4 mb 0.00 in0.0 mm 0.00 in0.0 mm 0.00 in0.0 mm
07:24 PM 48.5°F9.2°C 22.1°F-5.5°C 35% Calm Calm -- 30.28 in1025.4 mb 0.00 in0.0 mm 0.00 in0.0 mm 0.00 in0.0 mm
07:25 PM 48.5°F9.2°C 22.1°F-5.5°C 35% Calm Calm -- 30.28 in1025.4 mb 0.00 in0.0 mm 0.00 in0.0 mm 0.00 in0.0 mm
07:29 PM 48.2°F9.0°C 22.5°F-5.3°C 36% Calm Calm -- 30.28 in1025.4 mb 0.00 in0.0 mm 0.00 in0.0 mm 0.00 in0.0 mm
07:30 PM 48.1°F8.9°C 21.8°F-5.7°C 35% Calm Calm -- 30.28 in1025.4 mb 0.00 in0.0 mm 0.00 in0.0 mm 0.00 in0.0 mm
07:34 PM 47.8°F8.8°C 22.2°F-5.4°C 36% Calm Calm -- 30.28 in1025.4 mb 0.00 in0.0 mm 0.00 in0.0 mm 0.00 in0.0 mm
07:35 PM 47.7°F8.7°C 22.7°F-5.2°C 37% Calm Calm -- 30.28 in1025.4 mb 0.00 in0.0 mm 0.00 in0.0 mm 0.00 in0.0 mm
07:39 PM 47.6°F8.7°C 22.6°F-5.2°C 37% Calm Calm -- 30.28 in1025.4 mb 0.00 in0.0 mm 0.00 in0.0 mm 0.00 in0.0 mm
07:40 PM 47.5°F8.6°C 23.2°F-4.9°C 38% Calm Calm -- 30.28 in1025.4 mb 0.00 in0.0 mm 0.00 in0.0 mm 0.00 in0.0 mm
07:44 PM 47.2°F8.4°C 21.6°F-5.8°C 36% Calm Calm -- 30.28 in1025.4 mb 0.00 in0.0 mm 0.00 in0.0 mm 0.00 in0.0 mm
07:45 PM 47.1°F8.4°C 21.5°F-5.8°C 36% Calm Calm -- 30.28 in1025.4 mb 0.00 in0.0 mm 0.00 in0.0 mm 0.00 in0.0 mm
07:49 PM 46.8°F8.2°C 21.3°F-5.9°C 36% Calm Calm -- 30.28 in1025.4 mb 0.00 in0.0 mm 0.00 in0.0 mm 0.00 in0.0 mm
07:50 PM 46.7°F8.2°C 21.2°F-6.0°C 36% Calm Calm -- 30.28 in1025.4 mb 0.00 in0.0 mm 0.00 in0.0 mm 0.00 in0.0 mm
07:54 PM 46.3°F7.9°C 21.5°F-5.8°C 37% Calm Calm -- 30.28 in1025.4 mb 0.00 in0.0 mm 0.00 in0.0 mm 0.00 in0.0 mm
07:55 PM 46.2°F7.9°C 21.4°F-5.9°C 37% Calm Calm -- 30.29 in1025.7 mb 0.00 in0.0 mm 0.00 in0.0 mm 0.00 in0.0 mm
07:59 PM 45.9°F7.7°C 21.1°F-6.1°C 37% Calm Calm 2.0 mph3.2 kmh 30.29 in1025.7 mb 0.00 in0.0 mm 0.00 in0.0 mm 0.00 in0.0 mm
08:00 PM 45.8°F7.7°C 21.0°F-6.1°C 37% Calm Calm -- 30.29 in1025.7 mb 0.00 in0.0 mm 0.00 in0.0 mm 0.00 in0.0 mm
08:04 PM 45.5°F7.5°C 20.8°F-6.2°C 37% Calm Calm -- 30.29 in1025.7 mb 0.00 in0.0 mm 0.00 in0.0 mm 0.00 in0.0 mm
08:05 PM 45.4°F7.4°C 20.7°F-6.3°C 37% Calm Calm -- 30.29 in1025.7 mb 0.00 in0.0 mm 0.00 in0.0 mm 0.00 in0.0 mm
08:09 PM 45.2°F7.3°C 21.7°F-5.7°C 39% Calm Calm -- 30.29 in1025.7 mb 0.00 in0.0 mm 0.00 in0.0 mm 0.00 in0.0 mm
08:10 PM 45.1°F7.3°C 21.6°F-5.8°C 39% Calm Calm -- 30.29 in1025.7 mb 0.00 in0.0 mm 0.00 in0.0 mm 0.00 in0.0 mm
08:14 PM 44.8°F7.1°C 20.8°F-6.2°C 38% Calm Calm 1.0 mph1.6 kmh 30.29 in1025.7 mb 0.00 in0.0 mm 0.00 in0.0 mm 0.00 in0.0 mm
08:15 PM 44.7°F7.1°C 21.9°F-5.6°C 40% Calm Calm -- 30.29 in1025.7 mb 0.00 in0.0 mm 0.00 in0.0 mm 0.00 in0.0 mm
08:19 PM 44.4°F6.9°C 21.6°F-5.8°C 40% Calm Calm -- 30.29 in1025.7 mb 0.00 in0.0 mm 0.00 in0.0 mm 0.00 in0.0 mm
08:20 PM 44.3°F6.8°C 22.1°F-5.5°C 41% Calm Calm -- 30.29 in1025.7 mb 0.00 in0.0 mm 0.00 in0.0 mm 0.00 in0.0 mm
08:24 PM 44.2°F6.8°C 20.8°F-6.2°C 39% Calm Calm 2.0 mph3.2 kmh 30.30 in1026.1 mb 0.00 in0.0 mm 0.00 in0.0 mm 0.00 in0.0 mm
08:25 PM 44.2°F6.8°C 20.8°F-6.2°C 39% 2.0 mph E3.2 kmh E 2.0 mph3.2 kmh 30.30 in1026.1 mb 0.00 in0.0 mm 0.00 in0.0 mm 0.00 in0.0 mm
08:29 PM 44.1°F6.7°C 21.9°F-5.6°C 41% 1.0 mph E1.6 kmh E 3.0 mph4.8 kmh 30.30 in1026.1 mb 0.00 in0.0 mm 0.00 in0.0 mm 0.00 in0.0 mm
08:30 PM 44.1°F6.7°C 22.5°F-5.3°C 42% Calm Calm 2.0 mph3.2 kmh 30.30 in1026.1 mb 0.00 in0.0 mm 0.00 in0.0 mm 0.00 in0.0 mm
08:34 PM 43.8°F6.6°C 21.7°F-5.7°C 41% Calm Calm 2.0 mph3.2 kmh 30.30 in1026.1 mb 0.00 in0.0 mm 0.00 in0.0 mm 0.00 in0.0 mm
08:35 PM 43.8°F6.6°C 22.2°F-5.4°C 42% 1.0 mph E1.6 kmh E 2.0 mph3.2 kmh 30.30 in1026.1 mb 0.00 in0.0 mm 0.00 in0.0 mm 0.00 in0.0 mm
08:39 PM 43.7°F6.5°C 21.6°F-5.8°C 41% 1.0 mph E1.6 kmh E 1.0 mph1.6 kmh 30.30 in1026.1 mb 0.00 in0.0 mm 0.00 in0.0 mm 0.00 in0.0 mm
08:40 PM 43.7°F6.5°C 21.6°F-5.8°C 41% Calm Calm 2.0 mph3.2 kmh 30.30 in1026.1 mb 0.00 in0.0 mm 0.00 in0.0 mm 0.00 in0.0 mm
08:44 PM 43.6°F6.4°C 22.6°F-5.2°C 43% Calm Calm 1.0 mph1.6 kmh 30.30 in1026.1 mb 0.00 in0.0 mm 0.00 in0.0 mm 0.00 in0.0 mm
08:45 PM 43.6°F6.4°C 22.0°F-5.6°C 42% 1.0 mph E1.6 kmh E 2.0 mph3.2 kmh 30.30 in1026.1 mb 0.00 in0.0 mm 0.00 in0.0 mm 0.00 in0.0 mm
08:49 PM 43.5°F6.4°C 21.4°F-5.9°C 41% Calm Calm -- 30.31 in1026.4 mb 0.00 in0.0 mm 0.00 in0.0 mm 0.00 in0.0 mm
08:50 PM 43.5°F6.4°C 21.4°F-5.9°C 41% 3.0 mph E4.8 kmh E 3.0 mph4.8 kmh 30.31 in1026.4 mb 0.00 in0.0 mm 0.00 in0.0 mm 0.00 in0.0 mm
08:54 PM 43.5°F6.4°C 20.8°F-6.2°C 40% Calm Calm 4.0 mph6.4 kmh 30.31 in1026.4 mb 0.00 in0.0 mm 0.00 in0.0 mm 0.00 in0.0 mm
08:55 PM 43.5°F6.4°C 21.4°F-5.9°C 41% Calm Calm -- 30.31 in1026.4 mb 0.00 in0.0 mm 0.00 in0.0 mm 0.00 in0.0 mm
08:59 PM 43.4°F6.3°C 20.7°F-6.3°C 40% Calm Calm 1.0 mph1.6 kmh 30.31 in1026.4 mb 0.00 in0.0 mm 0.00 in0.0 mm 0.00 in0.0 mm
09:00 PM 43.4°F6.3°C 20.1°F-6.6°C 39% Calm Calm -- 30.31 in1026.4 mb 0.00 in0.0 mm 0.00 in0.0 mm 0.00 in0.0 mm
09:04 PM 43.3°F6.3°C 20.6°F-6.3°C 40% Calm Calm -- 30.31 in1026.4 mb 0.00 in0.0 mm 0.00 in0.0 mm 0.00 in0.0 mm
09:05 PM 43.3°F6.3°C 20.6°F-6.3°C 40% 1.0 mph E1.6 kmh E 1.0 mph1.6 kmh 30.31 in1026.4 mb 0.00 in0.0 mm 0.00 in0.0 mm 0.00 in0.0 mm
09:09 PM 43.3°F6.3°C 21.2°F-6.0°C 41% 1.0 mph ESE1.6 kmh ESE 5.0 mph8.0 kmh 30.32 in1026.8 mb 0.00 in0.0 mm 0.00 in0.0 mm 0.00 in0.0 mm
09:10 PM 43.3°F6.3°C 20.6°F-6.3°C 40% Calm Calm 2.0 mph3.2 kmh 30.32 in1026.8 mb 0.00 in0.0 mm 0.00 in0.0 mm 0.00 in0.0 mm
09:14 PM 43.3°F6.3°C 21.2°F-6.0°C 41% Calm Calm -- 30.32 in1026.8 mb 0.00 in0.0 mm 0.00 in0.0 mm 0.00 in0.0 mm
09:15 PM 43.2°F6.2°C 21.1°F-6.1°C 41% 1.0 mph ESE1.6 kmh ESE 1.0 mph1.6 kmh 30.32 in1026.8 mb 0.00 in0.0 mm 0.00 in0.0 mm 0.00 in0.0 mm
09:19 PM 43.2°F6.2°C 20.5°F-6.4°C 40% 1.0 mph ESE1.6 kmh ESE 2.0 mph3.2 kmh 30.32 in1026.8 mb 0.00 in0.0 mm 0.00 in0.0 mm 0.00 in0.0 mm
09:20 PM 43.1°F6.2°C 20.4°F-6.4°C 40% 2.0 mph ESE3.2 kmh ESE 2.0 mph3.2 kmh 30.32 in1026.8 mb 0.00 in0.0 mm 0.00 in0.0 mm 0.00 in0.0 mm
09:24 PM 43.1°F6.2°C 20.4°F-6.4°C 40% 3.0 mph ESE4.8 kmh ESE 4.0 mph6.4 kmh 30.32 in1026.8 mb 0.00 in0.0 mm 0.00 in0.0 mm 0.00 in0.0 mm
09:25 PM 43.1°F6.2°C 20.4°F-6.4°C 40% 2.0 mph ESE3.2 kmh ESE 3.0 mph4.8 kmh 30.32 in1026.8 mb 0.00 in0.0 mm 0.00 in0.0 mm 0.00 in0.0 mm
09:29 PM 43.1°F6.2°C 20.4°F-6.4°C 40% Calm Calm -- 30.32 in1026.8 mb 0.00 in0.0 mm 0.00 in0.0 mm 0.00 in0.0 mm
09:30 PM 43.1°F6.2°C 20.4°F-6.4°C 40% Calm Calm 3.0 mph4.8 kmh 30.32 in1026.8 mb 0.00 in0.0 mm 0.00 in0.0 mm 0.00 in0.0 mm
09:34 PM 43.1°F6.2°C 20.4°F-6.4°C 40% 1.0 mph ESE1.6 kmh ESE 4.0 mph6.4 kmh 30.32 in1026.8 mb 0.00 in0.0 mm 0.00 in0.0 mm 0.00 in0.0 mm
09:35 PM 43.1°F6.2°C 20.4°F-6.4°C 40% Calm Calm 2.0 mph3.2 kmh 30.32 in1026.8 mb 0.00 in0.0 mm 0.00 in0.0 mm 0.00 in0.0 mm
09:39 PM 43.1°F6.2°C 21.0°F-6.1°C 41% Calm Calm 2.0 mph3.2 kmh 30.32 in1026.8 mb 0.00 in0.0 mm 0.00 in0.0 mm 0.00 in0.0 mm
09:40 PM 43.0°F6.1°C 20.4°F-6.4°C 40% Calm Calm -- 30.32 in1026.8 mb 0.00 in0.0 mm 0.00 in0.0 mm 0.00 in0.0 mm
09:44 PM 42.9°F6.1°C 20.3°F-6.5°C 40% 1.0 mph ESE1.6 kmh ESE 2.0 mph3.2 kmh 30.32 in1026.8 mb 0.00 in0.0 mm 0.00 in0.0 mm 0.00 in0.0 mm
09:45 PM 42.9°F6.1°C 20.8°F-6.2°C 41% Calm Calm 2.0 mph3.2 kmh 30.32 in1026.8 mb 0.00 in0.0 mm 0.00 in0.0 mm 0.00 in0.0 mm
09:49 PM 42.7°F5.9°C 21.2°F-6.0°C 42% Calm Calm 1.0 mph1.6 kmh 30.32 in1026.8 mb 0.00 in0.0 mm 0.00 in0.0 mm 0.00 in0.0 mm
09:50 PM 42.7°F5.9°C 21.2°F-6.0°C 42% Calm Calm 1.0 mph1.6 kmh 30.32 in1026.8 mb 0.00 in0.0 mm 0.00 in0.0 mm 0.00 in0.0 mm
09:54 PM 42.5°F5.8°C 21.0°F-6.1°C 42% Calm Calm -- 30.32 in1026.8 mb 0.00 in0.0 mm 0.00 in0.0 mm 0.00 in0.0 mm
09:55 PM 42.5°F5.8°C 21.0°F-6.1°C 42% Calm Calm -- 30.32 in1026.8 mb 0.00 in0.0 mm 0.00 in0.0 mm 0.00 in0.0 mm
09:59 PM 42.3°F5.7°C 20.9°F-6.2°C 42% Calm Calm -- 30.32 in1026.8 mb 0.00 in0.0 mm 0.00 in0.0 mm 0.00 in0.0 mm
10:00 PM 42.2°F5.7°C 20.8°F-6.2°C 42% Calm Calm -- 30.32 in1026.8 mb 0.00 in0.0 mm 0.00 in0.0 mm 0.00 in0.0 mm
10:04 PM 41.9°F5.5°C 19.9°F-6.7°C 41% Calm Calm -- 30.32 in1026.8 mb 0.00 in0.0 mm 0.00 in0.0 mm 0.00 in0.0 mm
10:05 PM 41.9°F5.5°C 20.5°F-6.4°C 42% Calm Calm 1.0 mph1.6 kmh 30.32 in1026.8 mb 0.00 in0.0 mm 0.00 in0.0 mm 0.00 in0.0 mm
10:09 PM 41.6°F5.3°C 20.8°F-6.2°C 43% 2.0 mph E3.2 kmh E 2.0 mph3.2 kmh 30.32 in1026.8 mb 0.00 in0.0 mm 0.00 in0.0 mm 0.00 in0.0 mm
10:10 PM 41.5°F5.3°C 20.7°F-6.3°C 43% 2.0 mph E3.2 kmh E 4.0 mph6.4 kmh 30.32 in1026.8 mb 0.00 in0.0 mm 0.00 in0.0 mm 0.00 in0.0 mm
10:14 PM 41.3°F5.2°C 21.1°F-6.1°C 44% Calm Calm -- 30.32 in1026.8 mb 0.00 in0.0 mm 0.00 in0.0 mm 0.00 in0.0 mm
10:15 PM 41.3°F5.2°C 20.5°F-6.4°C 43% Calm Calm 1.0 mph1.6 kmh 30.32 in1026.8 mb 0.00 in0.0 mm 0.00 in0.0 mm 0.00 in0.0 mm
10:19 PM 41.1°F5.1°C 21.4°F-5.9°C 45% Calm Calm 1.0 mph1.6 kmh 30.32 in1026.8 mb 0.00 in0.0 mm 0.00 in0.0 mm 0.00 in0.0 mm
10:20 PM 41.1°F5.1°C 21.4°F-5.9°C 45% Calm Calm -- 30.32 in1026.8 mb 0.00 in0.0 mm 0.00 in0.0 mm 0.00 in0.0 mm
10:24 PM 40.9°F4.9°C 21.2°F-6.0°C 45% Calm Calm -- 30.32 in1026.8 mb 0.00 in0.0 mm 0.00 in0.0 mm 0.00 in0.0 mm
10:25 PM 40.9°F4.9°C 21.2°F-6.0°C 45% Calm Calm -- 30.32 in1026.8 mb 0.00 in0.0 mm 0.00 in0.0 mm 0.00 in0.0 mm
10:29 PM 40.6°F4.8°C 20.4°F-6.4°C 44% Calm Calm -- 30.32 in1026.8 mb 0.00 in0.0 mm 0.00 in0.0 mm 0.00 in0.0 mm
10:30 PM 40.5°F4.7°C 20.3°F-6.5°C 44% Calm Calm -- 30.32 in1026.8 mb 0.00 in0.0 mm 0.00 in0.0 mm 0.00 in0.0 mm
10:34 PM 40.2°F4.6°C 20.6°F-6.3°C 45% Calm Calm -- 30.32 in1026.8 mb 0.00 in0.0 mm 0.00 in0.0 mm 0.00 in0.0 mm
10:35 PM 40.2°F4.6°C 21.1°F-6.1°C 46% Calm Calm -- 30.32 in1026.8 mb 0.00 in0.0 mm 0.00 in0.0 mm 0.00 in0.0 mm
10:39 PM 40.0°F4.4°C 21.4°F-5.9°C 47% Calm Calm -- 30.32 in1026.8 mb 0.00 in0.0 mm 0.00 in0.0 mm 0.00 in0.0 mm
10:40 PM 40.0°F4.4°C 21.4°F-5.9°C 47% Calm Calm -- 30.32 in1026.8 mb 0.00 in0.0 mm 0.00 in0.0 mm 0.00 in0.0 mm
10:44 PM 39.8°F4.3°C 21.7°F-5.7°C 48% Calm Calm -- 30.32 in1026.8 mb 0.00 in0.0 mm 0.00 in0.0 mm 0.00 in0.0 mm
10:45 PM 39.7°F4.3°C 21.6°F-5.8°C 48% Calm Calm -- 30.32 in1026.8 mb 0.00 in0.0 mm 0.00 in0.0 mm 0.00 in0.0 mm
10:49 PM 39.4°F4.1°C 20.9°F-6.2°C 47% Calm Calm -- 30.32 in1026.8 mb 0.00 in0.0 mm 0.00 in0.0 mm 0.00 in0.0 mm
10:50 PM 39.3°F4.1°C 20.8°F-6.2°C 47% Calm Calm -- 30.32 in1026.8 mb 0.00 in0.0 mm 0.00 in0.0 mm 0.00 in0.0 mm
10:54 PM 39.1°F3.9°C 21.6°F-5.8°C 49% Calm Calm -- 30.32 in1026.8 mb 0.00 in0.0 mm 0.00 in0.0 mm 0.00 in0.0 mm
10:55 PM 39.0°F3.9°C 22.0°F-5.6°C 50% Calm Calm -- 30.32 in1026.8 mb 0.00 in0.0 mm 0.00 in0.0 mm 0.00 in0.0 mm
10:59 PM 38.8°F3.8°C 21.8°F-5.7°C 50% Calm Calm -- 30.32 in1026.8 mb 0.00 in0.0 mm 0.00 in0.0 mm 0.00 in0.0 mm
11:00 PM 38.7°F3.7°C 21.2°F-6.0°C 49% Calm Calm -- 30.32 in1026.8 mb 0.00 in0.0 mm 0.00 in0.0 mm 0.00 in0.0 mm
11:04 PM 38.5°F3.6°C 21.5°F-5.8°C 50% Calm Calm -- 30.32 in1026.8 mb 0.00 in0.0 mm 0.00 in0.0 mm 0.00 in0.0 mm
11:05 PM 38.4°F3.6°C 21.4°F-5.9°C 50% Calm Calm -- 30.32 in1026.8 mb 0.00 in0.0 mm 0.00 in0.0 mm 0.00 in0.0 mm
11:09 PM 38.2°F3.4°C 21.7°F-5.7°C 51% Calm Calm -- 30.32 in1026.8 mb 0.00 in0.0 mm 0.00 in0.0 mm 0.00 in0.0 mm
11:10 PM 38.2°F3.4°C 21.7°F-5.7°C 51% Calm Calm -- 30.32 in1026.8 mb 0.00 in0.0 mm 0.00 in0.0 mm 0.00 in0.0 mm
11:14 PM 37.9°F3.3°C 21.9°F-5.6°C 52% Calm Calm -- 30.32 in1026.8 mb 0.00 in0.0 mm 0.00 in0.0 mm 0.00 in0.0 mm
11:15 PM 37.9°F3.3°C 21.9°F-5.6°C 52% Calm Calm -- 30.32 in1026.8 mb 0.00 in0.0 mm 0.00 in0.0 mm 0.00 in0.0 mm
11:19 PM 37.6°F3.1°C 21.6°F-5.8°C 52% Calm Calm -- 30.32 in1026.8 mb 0.00 in0.0 mm 0.00 in0.0 mm 0.00 in0.0 mm
11:20 PM 37.5°F3.1°C 21.5°F-5.8°C 52% Calm Calm -- 30.32 in1026.8 mb 0.00 in0.0 mm 0.00 in0.0 mm 0.00 in0.0 mm
11:24 PM 37.3°F2.9°C 22.2°F-5.4°C 54% Calm Calm -- 30.32 in1026.8 mb 0.00 in0.0 mm 0.00 in0.0 mm 0.00 in0.0 mm
11:25 PM 37.3°F2.9°C 22.2°F-5.4°C 54% Calm Calm -- 30.32 in1026.8 mb 0.00 in0.0 mm 0.00 in0.0 mm 0.00 in0.0 mm
11:29 PM 37.0°F2.8°C 21.9°F-5.6°C 54% Calm Calm -- 30.32 in1026.8 mb 0.00 in0.0 mm 0.00 in0.0 mm 0.00 in0.0 mm
11:30 PM 36.9°F2.7°C 21.8°F-5.7°C 54% Calm Calm -- 30.32 in1026.8 mb 0.00 in0.0 mm 0.00 in0.0 mm 0.00 in0.0 mm
11:34 PM 36.7°F2.6°C 22.9°F-5.1°C 57% Calm Calm -- 30.32 in1026.8 mb 0.00 in0.0 mm 0.00 in0.0 mm 0.00 in0.0 mm
11:35 PM 36.6°F2.6°C 23.2°F-4.9°C 58% Calm Calm -- 30.32 in1026.8 mb 0.00 in0.0 mm 0.00 in0.0 mm 0.00 in0.0 mm
11:39 PM 36.3°F2.4°C 23.4°F-4.8°C 59% Calm Calm -- 30.32 in1026.8 mb 0.00 in0.0 mm 0.00 in0.0 mm 0.00 in0.0 mm
11:40 PM 36.2°F2.3°C 23.3°F-4.8°C 59% Calm Calm -- 30.32 in1026.8 mb 0.00 in0.0 mm 0.00 in0.0 mm 0.00 in0.0 mm
11:44 PM 35.9°F2.2°C 23.4°F-4.8°C 60% Calm Calm -- 30.32 in1026.8 mb 0.00 in0.0 mm 0.00 in0.0 mm 0.00 in0.0 mm
11:45 PM 35.9°F2.2°C 23.4°F-4.8°C 60% Calm Calm -- 30.32 in1026.8 mb 0.00 in0.0 mm 0.00 in0.0 mm 0.00 in0.0 mm
11:49 PM 35.7°F2.1°C 24.0°F-4.4°C 62% Calm Calm -- 30.32 in1026.8 mb 0.00 in0.0 mm 0.00 in0.0 mm 0.00 in0.0 mm
11:50 PM 35.6°F2.0°C 24.3°F-4.3°C 63% Calm Calm -- 30.32 in1026.8 mb 0.00 in0.0 mm 0.00 in0.0 mm 0.00 in0.0 mm
11:54 PM 35.3°F1.8°C 23.2°F-4.9°C 61% Calm Calm -- 30.32 in1026.8 mb 0.00 in0.0 mm 0.00 in0.0 mm 0.00 in0.0 mm
11:55 PM 35.2°F1.8°C 23.5°F-4.7°C 62% Calm Calm -- 30.32 in1026.8 mb 0.00 in0.0 mm 0.00 in0.0 mm 0.00 in0.0 mm
11:59 PM 34.9°F1.6°C 23.2°F-4.9°C 62% Calm Calm -- 30.32 in1026.8 mb 0.00 in0.0 mm 0.00 in0.0 mm 0.00 in0.0 mm